Observation data for Van Horn on 03/25/2019      Previous  Date  Next       Current Mesonet Observations  Soil Data  Daily Summary Page  Observations in Plain Language
KVA1 250500Z 27006KT 12/M09 A3019 RMK A01 T01211087  RH  023%=      5-min Rain = 0
KVA1 250501Z 27005KT 12/M09 A3019 RMK A01 T01211087  RH  023%=      5-min Rain = 0
KVA1 250502Z 27004KT 12/M09 A3019 RMK A01 T01201087  RH  023%=      5-min Rain = 0
KVA1 250503Z 26003KT 12/M09 A3019 RMK A01 T01201087  RH  023%=      5-min Rain = 0
KVA1 250504Z 24002KT 12/M09 A3019 RMK A01 T01191088  RH  023%=      5-min Rain = 0
KVA1 250505Z 25002KT 12/M09 A3019 RMK A01 T01161088  RH  023%=      5-min Rain = 0
KVA1 250506Z 25003KT 11/M09 A3019 RMK A01 T01131088  RH  023%=      5-min Rain = 0
KVA1 250507Z 25004KT 11/M09 A3019 RMK A01 T01121088  RH  024%=      5-min Rain = 0
KVA1 250508Z 26004KT 11/M09 A3019 RMK A01 T01121087  RH  024%=      5-min Rain = 0
KVA1 250509Z 26005KT 11/M09 A3019 RMK A01 T01131086  RH  024%=      5-min Rain = 0
KVA1 250510Z 26005KT 11/M09 A3019 RMK A01 T01131086  RH  024%=      5-min Rain = 0
KVA1 250511Z 26005KT 11/M09 A3019 RMK A01 T01141086  RH  024%=      5-min Rain = 0
KVA1 250512Z 26005KT 11/M09 A3019 RMK A01 T01131087  RH  024%=      5-min Rain = 0
KVA1 250513Z 26005KT 11/M09 A3019 RMK A01 T01131086  RH  024%=      5-min Rain = 0
KVA1 250514Z 26005KT 11/M09 A3019 RMK A01 T01121087  RH  024%=      5-min Rain = 0
KVA1 250515Z 26006KT 11/M09 A3019 RMK A01 T01121086  RH  024%=      5-min Rain = 0
KVA1 250516Z 26006KT 11/M09 A3019 RMK A01 T01121086  RH  024%=      5-min Rain = 0
KVA1 250517Z 26006KT 11/M09 A3019 RMK A01 T01121087  RH  024%=      5-min Rain = 0
KVA1 250518Z 26006KT 11/M09 A3019 RMK A01 T01121086  RH  024%=      5-min Rain = 0
KVA1 250519Z 26006KT 11/M09 A3019 RMK A01 T01121086  RH  024%=      5-min Rain = 0
KVA1 250520Z 26005KT 11/M09 A3019 RMK A01 T01121086  RH  024%=      5-min Rain = 0
KVA1 250521Z 27005KT 11/M09 A3019 RMK A01 T01121086  RH  024%=      5-min Rain = 0
KVA1 250522Z 27005KT 11/M09 A3019 RMK A01 T01111086  RH  024%=      5-min Rain = 0
KVA1 250523Z 27006KT 11/M09 A3019 RMK A01 T01111086  RH  024%=      5-min Rain = 0
KVA1 250524Z 27006KT 11/M09 A3019 RMK A01 T01121086  RH  024%=      5-min Rain = 0
KVA1 250525Z 27006KT 11/M08 A3019 RMK A01 T01141084  RH  024%=      5-min Rain = 0
KVA1 250526Z 28006KT 12/M08 A3019 RMK A01 T01181083  RH  024%=      5-min Rain = 0
KVA1 250527Z 28007KT 12/M08 A3019 RMK A01 T01211082  RH  023%=      5-min Rain = 0
KVA1 250528Z 28007KT 12/M08 A3019 RMK A01 T01241081  RH  023%=      5-min Rain = 0
KVA1 250529Z 27007KT 13/M08 A3019 RMK A01 T01261082  RH  023%=      5-min Rain = 0
KVA1 250530Z 27007KT 13/M08 A3019 RMK A01 T01291081  RH  022%=      5-min Rain = 0
KVA1 250531Z 27007KT 13/M08 A3019 RMK A01 T01311082  RH  022%=      5-min Rain = 0
KVA1 250532Z 28007KT 13/M08 A3019 RMK A01 T01321082  RH  022%=      5-min Rain = 0
KVA1 250533Z 27007KT 13/M08 A3019 RMK A01 T01331082  RH  022%=      5-min Rain = 0
KVA1 250534Z 27007KT 13/M08 A3019 RMK A01 T01321082  RH  022%=      5-min Rain = 0
KVA1 250535Z 27007KT 13/M08 A3019 RMK A01 T01331082  RH  022%=      5-min Rain = 0
KVA1 250536Z 27007KT 13/M08 A3019 RMK A01 T01331083  RH  022%=      5-min Rain = 0
KVA1 250537Z 28007KT 13/M08 A3019 RMK A01 T01341082  RH  021%=      5-min Rain = 0
KVA1 250538Z 28007KT 13/M08 A3019 RMK A01 T01341082  RH  021%=      5-min Rain = 0
KVA1 250539Z 28007KT 14/M08 A3019 RMK A01 T01351082  RH  021%=      5-min Rain = 0
KVA1 250540Z 27007KT 14/M08 A3019 RMK A01 T01351082  RH  021%=      5-min Rain = 0
KVA1 250541Z 27007KT 14/M08 A3019 RMK A01 T01351083  RH  021%=      5-min Rain = 0
KVA1 250542Z 27006KT 14/M08 A3019 RMK A01 T01361082  RH  021%=      5-min Rain = 0
KVA1 250543Z 27006KT 14/M08 A3019 RMK A01 T01361082  RH  021%=      5-min Rain = 0
KVA1 250544Z 27007KT 14/M08 A3019 RMK A01 T01361082  RH  021%=      5-min Rain = 0
KVA1 250545Z 28007KT 14/M08 A3019 RMK A01 T01361082  RH  021%=      5-min Rain = 0
KVA1 250546Z 28006KT 14/M08 A3019 RMK A01 T01351082  RH  021%=      5-min Rain = 0
KVA1 250547Z 28007KT 14/M08 A3019 RMK A01 T01351082  RH  021%=      5-min Rain = 0
KVA1 250548Z 28008KT 13/M08 A3019 RMK A01 T01341083  RH  021%=      5-min Rain = 0
KVA1 250549Z 27007KT 13/M08 A3019 RMK A01 T01341082  RH  022%=      5-min Rain = 0
KVA1 250550Z 27008KT 13/M08 A3019 RMK A01 T01331082  RH  022%=      5-min Rain = 0
KVA1 250551Z 27008KT 13/M08 A3019 RMK A01 T01331082  RH  022%=      5-min Rain = 0
KVA1 250552Z 27008KT 13/M08 A302 RMK A01 T01331082  RH  022%=      5-min Rain = 0
KVA1 250553Z 27008KT 13/M08 A3019 RMK A01 T01341082  RH  022%=      5-min Rain = 0
KVA1 250554Z 27008KT 13/M08 A3019 RMK A01 T01341082  RH  021%=      5-min Rain = 0
KVA1 250555Z 27008KT 14/M08 A3019 RMK A01 T01351082  RH  021%=      5-min Rain = 0
KVA1 250556Z 27007KT 14/M08 A3019 RMK A01 T01351082  RH  021%=      5-min Rain = 0
KVA1 250557Z 27008KT 14/M08 A3019 RMK A01 T01351082  RH  021%=      5-min Rain = 0
KVA1 250558Z 27008KT 14/M08 A3019 RMK A01 T01351082  RH  021%=      5-min Rain = 0
KVA1 250559Z 27008KT 14/M08 A3019 RMK A01 T01351082  RH  021%=      5-min Rain = 0
KVA1 250600Z 27008KT 14/M08 A3019 RMK A01 T01351082  RH  021%=      5-min Rain = 0
KVA1 250601Z 27008KT 14/M08 A3019 RMK A01 T01351082  RH  021%=      5-min Rain = 0
KVA1 250602Z 27007KT 13/M08 A3019 RMK A01 T01341082  RH  021%=      5-min Rain = 0
KVA1 250603Z 27008KT 14/M08 A3019 RMK A01 T01351082  RH  021%=      5-min Rain = 0
KVA1 250604Z 27007KT 14/M08 A3019 RMK A01 T01361082  RH  021%=      5-min Rain = 0
KVA1 250605Z 27007KT 14/M08 A3019 RMK A01 T01371081  RH  021%=      5-min Rain = 0
KVA1 250606Z 27007KT 14/M08 A3019 RMK A01 T01371082  RH  021%=      5-min Rain = 0
KVA1 250607Z 27007KT 14/M08 A3019 RMK A01 T01361082  RH  021%=      5-min Rain = 0
KVA1 250608Z 27007KT 14/M08 A3019 RMK A01 T01361082  RH  021%=      5-min Rain = 0
KVA1 250609Z 27008KT 14/M08 A3019 RMK A01 T01371082  RH  021%=      5-min Rain = 0
KVA1 250610Z 27008KT 14/M08 A3019 RMK A01 T01371082  RH  021%=      5-min Rain = 0
KVA1 250611Z 27007KT 14/M08 A3019 RMK A01 T01381081  RH  021%=      5-min Rain = 0
KVA1 250612Z 27007KT 14/M08 A3019 RMK A01 T01381081  RH  021%=      5-min Rain = 0
KVA1 250613Z 27007KT 14/M08 A3019 RMK A01 T01381080  RH  021%=      5-min Rain = 0
KVA1 250614Z 27008KT 14/M08 A3019 RMK A01 T01381080  RH  021%=      5-min Rain = 0
KVA1 250615Z 27007KT 14/M08 A3019 RMK A01 T01361081  RH  021%=      5-min Rain = 0
KVA1 250616Z 27007KT 14/M08 A3019 RMK A01 T01351081  RH  022%=      5-min Rain = 0
KVA1 250617Z 27008KT 14/M08 A3019 RMK A01 T01351080  RH  022%=      5-min Rain = 0
KVA1 250618Z 27007KT 13/M08 A3019 RMK A01 T01341080  RH  022%=      5-min Rain = 0
KVA1 250619Z 27007KT 13/M08 A3019 RMK A01 T01331080  RH  022%=      5-min Rain = 0
KVA1 250620Z 27007KT 13/M08 A3019 RMK A01 T01321081  RH  022%=      5-min Rain = 0
KVA1 250621Z 27007KT 13/M08 A3019 RMK A01 T01311081  RH  022%=      5-min Rain = 0
KVA1 250622Z 27008KT 13/M08 A3019 RMK A01 T01311081  RH  022%=      5-min Rain = 0
KVA1 250623Z 27007KT 13/M08 A3019 RMK A01 T01311081  RH  022%=      5-min Rain = 0
KVA1 250624Z 27007KT 13/M08 A3019 RMK A01 T01311081  RH  022%=      5-min Rain = 0
KVA1 250625Z 28006KT 13/M08 A3019 RMK A01 T01311081  RH  022%=      5-min Rain = 0
KVA1 250626Z 03004KT 13/M08 A302 RMK A01 T01311081  RH  022%=      5-min Rain = 0
KVA1 250627Z 05004KT 13/M08 A302 RMK A01 T01291083  RH  022%=      5-min Rain = 0
KVA1 250628Z 06004KT 13/M08 A302 RMK A01 T01271084  RH  022%=      5-min Rain = 0
KVA1 250629Z 08003KT 13/M09 A302 RMK A01 T01251085  RH  022%=      5-min Rain = 0
KVA1 250630Z 30002KT 12/M09 A302 RMK A01 T01231085  RH  023%=      5-min Rain = 0
KVA1 250631Z 31001KT 12/M09 A302 RMK A01 T01221085  RH  023%=      5-min Rain = 0
KVA1 250632Z 02002KT 12/M09 A302 RMK A01 T01211085  RH  023%=      5-min Rain = 0
KVA1 250633Z 04003KT 12/M09 A302 RMK A01 T01201085  RH  023%=      5-min Rain = 0
KVA1 250634Z 03003KT 12/M09 A302 RMK A01 T01211085  RH  023%=      5-min Rain = 0
KVA1 250635Z 01003KT 12/M09 A302 RMK A01 T01201086  RH  023%=      5-min Rain = 0
KVA1 250636Z 32003KT 12/M09 A302 RMK A01 T01191087  RH  023%=      5-min Rain = 0
KVA1 250637Z 28004KT 12/M09 A302 RMK A01 T01181087  RH  023%=      5-min Rain = 0
KVA1 250638Z 33004KT 12/M09 A302 RMK A01 T01191085  RH  023%=      5-min Rain = 0
KVA1 250639Z 33004KT 12/M09 A302 RMK A01 T01181086  RH  023%=      5-min Rain = 0
KVA1 250640Z 29003KT 12/M09 A302 RMK A01 T01171085  RH  023%=      5-min Rain = 0
KVA1 250641Z 27004KT 12/M08 A302 RMK A01 T01171084  RH  024%=      5-min Rain = 0
KVA1 250642Z 26003KT 12/M08 A302 RMK A01 T01161084  RH  024%=      5-min Rain = 0
KVA1 250643Z 27004KT 12/M08 A302 RMK A01 T01171084  RH  024%=      5-min Rain = 0
KVA1 250644Z 27003KT 12/M08 A302 RMK A01 T01171084  RH  024%=      5-min Rain = 0
KVA1 250645Z 27002KT 12/M08 A302 RMK A01 T01171084  RH  024%=      5-min Rain = 0
KVA1 250646Z 26000KT 12/M08 A302 RMK A01 T01171084  RH  024%=      5-min Rain = 0
KVA1 250647Z 00000KT 11/M09 A302 RMK A01 T01141086  RH  024%=      5-min Rain = 0
KVA1 250648Z 27001KT 11/M09 A302 RMK A01 T01121086  RH  024%=      5-min Rain = 0
KVA1 250649Z 22001KT 11/M09 A302 RMK A01 T01111086  RH  024%=      5-min Rain = 0
KVA1 250650Z 24001KT 11/M09 A302 RMK A01 T01101085  RH  024%=      5-min Rain = 0
KVA1 250651Z 24001KT 11/M09 A302 RMK A01 T01101086  RH  025%=      5-min Rain = 0
KVA1 250652Z 27001KT 11/M09 A302 RMK A01 T01101085  RH  025%=      5-min Rain = 0
KVA1 250653Z 26001KT 11/M09 A302 RMK A01 T01091086  RH  025%=      5-min Rain = 0
KVA1 250654Z 26001KT 11/M09 A302 RMK A01 T01081086  RH  025%=      5-min Rain = 0
KVA1 250655Z 28001KT 11/M09 A302 RMK A01 T01071087  RH  025%=      5-min Rain = 0
KVA1 250656Z 26001KT 11/M09 A302 RMK A01 T01061087  RH  025%=      5-min Rain = 0
KVA1 250657Z 26001KT 11/M09 A302 RMK A01 T01051087  RH  025%=      5-min Rain = 0
KVA1 250658Z 23001KT 10/M09 A302 RMK A01 T01041087  RH  025%=      5-min Rain = 0
KVA1 250659Z 22002KT 10/M09 A302 RMK A01 T01041086  RH  025%=      5-min Rain = 0
KVA1 250700Z 23002KT 10/M09 A302 RMK A01 T01031086  RH  025%=      5-min Rain = 0
KVA1 250701Z 23002KT 10/M09 A302 RMK A01 T01021087  RH  026%=      5-min Rain = 0
KVA1 250702Z 22001KT 10/M09 A302 RMK A01 T01001088  RH  026%=      5-min Rain = 0
KVA1 250703Z 22002KT 10/M09 A302 RMK A01 T00991087  RH  026%=      5-min Rain = 0
KVA1 250704Z 20003KT 10/M09 A302 RMK A01 T00991087  RH  026%=      5-min Rain = 0
KVA1 250705Z 19003KT 10/M09 A302 RMK A01 T00991088  RH  026%=      5-min Rain = 0
KVA1 250706Z 20002KT 10/M09 A302 RMK A01 T00981088  RH  026%=      5-min Rain = 0
KVA1 250707Z 20003KT 10/M09 A302 RMK A01 T00981089  RH  026%=      5-min Rain = 0
KVA1 250708Z 20003KT 10/M09 A302 RMK A01 T00981087  RH  026%=      5-min Rain = 0
KVA1 250709Z 21003KT 10/M09 A302 RMK A01 T00981087  RH  026%=      5-min Rain = 0
KVA1 250710Z 21004KT 10/M09 A302 RMK A01 T00991087  RH  026%=      5-min Rain = 0
KVA1 250711Z 21004KT 10/M09 A302 RMK A01 T00981088  RH  026%=      5-min Rain = 0
KVA1 250712Z 21004KT 10/M09 A302 RMK A01 T00991087  RH  026%=      5-min Rain = 0
KVA1 250713Z 22004KT 10/M09 A302 RMK A01 T00981088  RH  026%=      5-min Rain = 0
KVA1 250714Z 22004KT 10/M09 A302 RMK A01 T00981088  RH  026%=      5-min Rain = 0
KVA1 250715Z 23004KT 10/M09 A302 RMK A01 T00981087  RH  026%=      5-min Rain = 0
KVA1 250716Z 23003KT 10/M09 A302 RMK A01 T00971088  RH  026%=      5-min Rain = 0
KVA1 250717Z 23003KT 10/M09 A302 RMK A01 T00961088  RH  026%=      5-min Rain = 0
KVA1 250718Z 23003KT 10/M09 A302 RMK A01 T00961088  RH  026%=      5-min Rain = 0
KVA1 250719Z 23003KT 10/M09 A302 RMK A01 T00951088  RH  027%=      5-min Rain = 0
KVA1 250720Z 21003KT 09/M09 A302 RMK A01 T00941089  RH  027%=      5-min Rain = 0
KVA1 250721Z 21003KT 09/M09 A302 RMK A01 T00921089  RH  027%=      5-min Rain = 0
KVA1 250722Z 24003KT 09/M09 A302 RMK A01 T00911089  RH  027%=      5-min Rain = 0
KVA1 250723Z 24003KT 09/M09 A302 RMK A01 T00901089  RH  027%=      5-min Rain = 0
KVA1 250724Z 23003KT 09/M09 A302 RMK A01 T00911088  RH  027%=      5-min Rain = 0
KVA1 250725Z 24004KT 09/M09 A302 RMK A01 T00901088  RH  027%=      5-min Rain = 0
KVA1 250726Z 25004KT 09/M09 A302 RMK A01 T00901088  RH  027%=      5-min Rain = 0
KVA1 250727Z 24004KT 09/M09 A302 RMK A01 T00901087  RH  028%=      5-min Rain = 0
KVA1 250728Z 24004KT 09/M09 A302 RMK A01 T00901087  RH  028%=      5-min Rain = 0
KVA1 250729Z 23004KT 09/M09 A302 RMK A01 T00891088  RH  028%=      5-min Rain = 0
KVA1 250730Z 24004KT 09/M09 A302 RMK A01 T00881089  RH  028%=      5-min Rain = 0
KVA1 250731Z 24005KT 09/M09 A302 RMK A01 T00871087  RH  028%=      5-min Rain = 0
KVA1 250732Z 25005KT 09/M09 A302 RMK A01 T00871088  RH  028%=      5-min Rain = 0
KVA1 250733Z 26006KT 09/M09 A3019 RMK A01 T00881087  RH  028%=      5-min Rain = 0
KVA1 250734Z 25006KT 09/M09 A3019 RMK A01 T00891086  RH  028%=      5-min Rain = 0
KVA1 250735Z 25006KT 09/M09 A3019 RMK A01 T00901086  RH  028%=      5-min Rain = 0
KVA1 250736Z 25006KT 09/M09 A3019 RMK A01 T00901087  RH  028%=      5-min Rain = 0
KVA1 250737Z 26007KT 09/M09 A3019 RMK A01 T00891087  RH  028%=      5-min Rain = 0
KVA1 250738Z 26007KT 09/M09 A3019 RMK A01 T00891087  RH  028%=      5-min Rain = 0
KVA1 250739Z 26007KT 09/M09 A3019 RMK A01 T00891087  RH  028%=      5-min Rain = 0
KVA1 250740Z 25007KT 09/M09 A3019 RMK A01 T00891086  RH  028%=      5-min Rain = 0
KVA1 250741Z 25008KT 09/M09 A3019 RMK A01 T00901086  RH  028%=      5-min Rain = 0
KVA1 250742Z 25008KT 09/M09 A3019 RMK A01 T00911085  RH  028%=      5-min Rain = 0
KVA1 250743Z 25008KT 09/M09 A3019 RMK A01 T00911085  RH  028%=      5-min Rain = 0
KVA1 250744Z 25008KT 09/M09 A3019 RMK A01 T00921085  RH  028%=      5-min Rain = 0
KVA1 250745Z 24008KT 09/M08 A3019 RMK A01 T00941083  RH  028%=      5-min Rain = 0
KVA1 250746Z 24008KT 10/M08 A3019 RMK A01 T00971083  RH  027%=      5-min Rain = 0
KVA1 250747Z 25008KT 10/M08 A3019 RMK A01 T01001081  RH  027%=      5-min Rain = 0
KVA1 250748Z 25008KT 10/M08 A3019 RMK A01 T01031081  RH  027%=      5-min Rain = 0
KVA1 250749Z 25009KT 11/M08 A3019 RMK A01 T01061081  RH  026%=      5-min Rain = 0
KVA1 250750Z 24007KT 11/M08 A3019 RMK A01 T01101080  RH  026%=      5-min Rain = 0
KVA1 250751Z 24007KT 11/M08 A3019 RMK A01 T01131080  RH  025%=      5-min Rain = 0
KVA1 250752Z 23007KT 11/M08 A3019 RMK A01 T01141081  RH  025%=      5-min Rain = 0
KVA1 250753Z 23006KT 11/M08 A3019 RMK A01 T01141081  RH  025%=      5-min Rain = 0
KVA1 250754Z 23006KT 11/M08 A3019 RMK A01 T01131081  RH  025%=      5-min Rain = 0
KVA1 250755Z 22007KT 11/M08 A3019 RMK A01 T01131081  RH  025%=      5-min Rain = 0
KVA1 250756Z 22007KT 11/M08 A3019 RMK A01 T01111082  RH  025%=      5-min Rain = 0
KVA1 250757Z 22006KT 11/M08 A3019 RMK A01 T01091082  RH  025%=      5-min Rain = 0
KVA1 250758Z 23005KT 11/M08 A3019 RMK A01 T01081083  RH  025%=      5-min Rain = 0
KVA1 250759Z 22002KT 11/M08 A3019 RMK A01 T01071083  RH  025%=      5-min Rain = 0
KVA1 250800Z 20001KT 11/M08 A3019 RMK A01 T01071082  RH  026%=      5-min Rain = 0
KVA1 250801Z 17001KT 11/M08 A3019 RMK A01 T01061083  RH  026%=      5-min Rain = 0
KVA1 250802Z 17002KT 11/M08 A3019 RMK A01 T01051082  RH  026%=      5-min Rain = 0
KVA1 250803Z 19003KT 10/M08 A3019 RMK A01 T01041083  RH  026%=      5-min Rain = 0
KVA1 250804Z 19003KT 10/M08 A3019 RMK A01 T01041083  RH  026%=      5-min Rain = 0
KVA1 250805Z 18004KT 10/M08 A3019 RMK A01 T01021084  RH  026%=      5-min Rain = 0
KVA1 250806Z 19005KT 10/M09 A3019 RMK A01 T01001085  RH  026%=      5-min Rain = 0
KVA1 250807Z 20005KT 10/M09 A3019 RMK A01 T00971086  RH  027%=      5-min Rain = 0
KVA1 250808Z 21004KT 10/M09 A3019 RMK A01 T00961085  RH  027%=      5-min Rain = 0
KVA1 250809Z 21005KT 10/M08 A3019 RMK A01 T00961084  RH  027%=      5-min Rain = 0
KVA1 250810Z 20006KT 10/M08 A3019 RMK A01 T00971084  RH  027%=      5-min Rain = 0
KVA1 250811Z 20007KT 10/M08 A3019 RMK A01 T00971084  RH  027%=      5-min Rain = 0
KVA1 250812Z 20006KT 10/M09 A3019 RMK A01 T00951086  RH  027%=      5-min Rain = 0
KVA1 250813Z 20006KT 09/M09 A3019 RMK A01 T00941085  RH  027%=      5-min Rain = 0
KVA1 250814Z 19005KT 09/M09 A3019 RMK A01 T00941085  RH  027%=      5-min Rain = 0
KVA1 250815Z 19005KT 09/M09 A3019 RMK A01 T00931085  RH  028%=      5-min Rain = 0
KVA1 250816Z 19005KT 09/M08 A3019 RMK A01 T00921084  RH  028%=      5-min Rain = 0
KVA1 250817Z 19005KT 09/M08 A3019 RMK A01 T00921084  RH  028%=      5-min Rain = 0
KVA1 250818Z 19005KT 09/M08 A3019 RMK A01 T00931083  RH  028%=      5-min Rain = 0
KVA1 250819Z 19006KT 09/M08 A3019 RMK A01 T00941083  RH  028%=      5-min Rain = 0
KVA1 250820Z 19007KT 10/M08 A3019 RMK A01 T00951083  RH  028%=      5-min Rain = 0
KVA1 250821Z 19007KT 10/M08 A3019 RMK A01 T00961083  RH  027%=      5-min Rain = 0
KVA1 250822Z 19007KT 10/M08 A3019 RMK A01 T00951083  RH  028%=      5-min Rain = 0
KVA1 250823Z 19007KT 09/M08 A3019 RMK A01 T00941084  RH  028%=      5-min Rain = 0
KVA1 250824Z 19007KT 10/M08 A3019 RMK A01 T00961082  RH  028%=      5-min Rain = 0
KVA1 250825Z 19007KT 10/M08 A3019 RMK A01 T01001082  RH  027%=      5-min Rain = 0
KVA1 250826Z 19007KT 10/M08 A3019 RMK A01 T01021083  RH  026%=      5-min Rain = 0
KVA1 250827Z 19006KT 10/M08 A3019 RMK A01 T01021083  RH  026%=      5-min Rain = 0
KVA1 250828Z 18006KT 10/M08 A3019 RMK A01 T01021083  RH  026%=      5-min Rain = 0
KVA1 250829Z 19006KT 10/M08 A3019 RMK A01 T01011084  RH  026%=      5-min Rain = 0
KVA1 250830Z 19006KT 10/M09 A3019 RMK A01 T00991085  RH  026%=      5-min Rain = 0
KVA1 250831Z 19006KT 10/M09 A3019 RMK A01 T00981085  RH  027%=      5-min Rain = 0
KVA1 250832Z 19006KT 10/M09 A3019 RMK A01 T00961085  RH  027%=      5-min Rain = 0
KVA1 250833Z 19007KT 09/M09 A3019 RMK A01 T00941086  RH  027%=      5-min Rain = 0
KVA1 250834Z 19007KT 09/M09 A3019 RMK A01 T00921086  RH  028%=      5-min Rain = 0
KVA1 250835Z 20007KT 09/M09 A3019 RMK A01 T00911086  RH  028%=      5-min Rain = 0
KVA1 250836Z 19006KT 09/M09 A3019 RMK A01 T00911086  RH  028%=      5-min Rain = 0
KVA1 250837Z 19006KT 09/M09 A3019 RMK A01 T00891087  RH  028%=      5-min Rain = 0
KVA1 250838Z 19007KT 09/M09 A3019 RMK A01 T00881087  RH  028%=      5-min Rain = 0
KVA1 250839Z 19007KT 09/M09 A3019 RMK A01 T00881086  RH  028%=      5-min Rain = 0
KVA1 250840Z 20005KT 09/M09 A3019 RMK A01 T00871086  RH  028%=      5-min Rain = 0
KVA1 250841Z 20006KT 09/M09 A3019 RMK A01 T00871086  RH  028%=      5-min Rain = 0
KVA1 250842Z 20007KT 09/M09 A3019 RMK A01 T00871086  RH  028%=      5-min Rain = 0
KVA1 250843Z 20007KT 09/M09 A3019 RMK A01 T00871086  RH  028%=      5-min Rain = 0
KVA1 250844Z 20007KT 09/M09 A3019 RMK A01 T00871086  RH  028%=      5-min Rain = 0
KVA1 250845Z 20006KT 09/M09 A3019 RMK A01 T00861086  RH  029%=      5-min Rain = 0
KVA1 250846Z 20006KT 09/M09 A3019 RMK A01 T00851087  RH  029%=      5-min Rain = 0
KVA1 250847Z 21006KT 08/M09 A3019 RMK A01 T00841087  RH  029%=      5-min Rain = 0
KVA1 250848Z 21006KT 08/M09 A3019 RMK A01 T00841087  RH  029%=      5-min Rain = 0
KVA1 250849Z 21007KT 08/M09 A3018 RMK A01 T00831087  RH  029%=      5-min Rain = 0
KVA1 250850Z 21007KT 08/M09 A3018 RMK A01 T00821087  RH  029%=      5-min Rain = 0
KVA1 250851Z 23004KT 08/M09 A3019 RMK A01 T00821087  RH  029%=      5-min Rain = 0
KVA1 250852Z 22006KT 08/M09 A3019 RMK A01 T00811088  RH  029%=      5-min Rain = 0
KVA1 250853Z 23006KT 08/M09 A3019 RMK A01 T00781089  RH  030%=      5-min Rain = 0
KVA1 250854Z 23005KT 08/M09 A3019 RMK A01 T00771089  RH  030%=      5-min Rain = 0
KVA1 250855Z 23007KT 08/M09 A3018 RMK A01 T00761089  RH  030%=      5-min Rain = 0
KVA1 250856Z 24006KT 08/M09 A3018 RMK A01 T00751088  RH  030%=      5-min Rain = 0
KVA1 250857Z 24007KT 08/M09 A3018 RMK A01 T00751088  RH  030%=      5-min Rain = 0
KVA1 250858Z 24007KT 07/M09 A3018 RMK A01 T00741088  RH  031%=      5-min Rain = 0
KVA1 250859Z 24007KT 07/M09 A3018 RMK A01 T00731088  RH  031%=      5-min Rain = 0
KVA1 250900Z 24007KT 07/M09 A3018 RMK A01 T00721088  RH  031%=      5-min Rain = 0
KVA1 250901Z 24007KT 07/M09 A3018 RMK A01 T00721088  RH  031%=      5-min Rain = 0
KVA1 250902Z 24007KT 07/M09 A3018 RMK A01 T00721088  RH  031%=      5-min Rain = 0
KVA1 250903Z 24006KT 07/M09 A3018 RMK A01 T00721088  RH  031%=      5-min Rain = 0
KVA1 250904Z 25006KT 07/M09 A3018 RMK A01 T00721088  RH  031%=      5-min Rain = 0
KVA1 250905Z 25006KT 07/M09 A3018 RMK A01 T00721088  RH  031%=      5-min Rain = 0
KVA1 250906Z 25006KT 07/M09 A3018 RMK A01 T00721088  RH  031%=      5-min Rain = 0
KVA1 250907Z 25006KT 07/M09 A3018 RMK A01 T00721089  RH  031%=      5-min Rain = 0
KVA1 250908Z 26006KT 07/M09 A3018 RMK A01 T00731088  RH  031%=      5-min Rain = 0
KVA1 250909Z 26007KT 07/M09 A3018 RMK A01 T00741088  RH  031%=      5-min Rain = 0
KVA1 250910Z 26006KT 07/M09 A3018 RMK A01 T00741088  RH  031%=      5-min Rain = 0
KVA1 250911Z 26006KT 07/M09 A3018 RMK A01 T00741089  RH  031%=      5-min Rain = 0
KVA1 250912Z 31003KT 07/M09 A3018 RMK A01 T00741089  RH  030%=      5-min Rain = 0
KVA1 250913Z 02003KT 07/M09 A3018 RMK A01 T00741089  RH  030%=      5-min Rain = 0
KVA1 250914Z 31003KT 07/M09 A3019 RMK A01 T00741088  RH  030%=      5-min Rain = 0
KVA1 250915Z 32003KT 08/M09 A3019 RMK A01 T00771088  RH  030%=      5-min Rain = 0
KVA1 250916Z 03003KT 08/M09 A3019 RMK A01 T00781089  RH  030%=      5-min Rain = 0
KVA1 250917Z 02002KT 08/M09 A3019 RMK A01 T00771089  RH  030%=      5-min Rain = 0
KVA1 250918Z 31003KT 08/M09 A3019 RMK A01 T00781089  RH  030%=      5-min Rain = 0
KVA1 250919Z 29003KT 08/M09 A3019 RMK A01 T00781090  RH  029%=      5-min Rain = 0
KVA1 250920Z 30002KT 08/M09 A3019 RMK A01 T00791090  RH  029%=      5-min Rain = 0
KVA1 250921Z 36002KT 08/M09 A3019 RMK A01 T00781090  RH  029%=      5-min Rain = 0
KVA1 250922Z 00001KT 08/M09 A3019 RMK A01 T00771090  RH  030%=      5-min Rain = 0
KVA1 250923Z 00001KT 08/M09 A3019 RMK A01 T00751090  RH  030%=      5-min Rain = 0
KVA1 250924Z 07002KT 08/M09 A3019 RMK A01 T00751089  RH  030%=      5-min Rain = 0
KVA1 250925Z 05001KT 07/M09 A3019 RMK A01 T00741089  RH  030%=      5-min Rain = 0
KVA1 250926Z 01000KT 07/M09 A3019 RMK A01 T00731090  RH  030%=      5-min Rain = 0
KVA1 250927Z 25000KT 07/M09 A3019 RMK A01 T00731090  RH  030%=      5-min Rain = 0
KVA1 250928Z 25000KT 07/M09 A3019 RMK A01 T00741089  RH  030%=      5-min Rain = 0
KVA1 250929Z 33000KT 08/M09 A3019 RMK A01 T00751089  RH  030%=      5-min Rain = 0
KVA1 250930Z 31001KT 07/M09 A3019 RMK A01 T00741090  RH  030%=      5-min Rain = 0
KVA1 250931Z 29000KT 07/M09 A3019 RMK A01 T00741090  RH  030%=      5-min Rain = 0
KVA1 250932Z 03001KT 08/M09 A3019 RMK A01 T00751090  RH  030%=      5-min Rain = 0
KVA1 250933Z 04001KT 07/M09 A3019 RMK A01 T00731092  RH  030%=      5-min Rain = 0
KVA1 250934Z 00000KT 07/M09 A3019 RMK A01 T00701092  RH  030%=      5-min Rain = 0
KVA1 250935Z 00000KT 07/M09 A3019 RMK A01 T00701091  RH  031%=      5-min Rain = 0
KVA1 250936Z 18001KT 07/M09 A3019 RMK A01 T00701090  RH  031%=      5-min Rain = 0
KVA1 250937Z 20002KT 07/M09 A3019 RMK A01 T00691091  RH  031%=      5-min Rain = 0
KVA1 250938Z 19002KT 07/M09 A3019 RMK A01 T00681091  RH  031%=      5-min Rain = 0
KVA1 250939Z 17004KT 07/M09 A3019 RMK A01 T00681090  RH  031%=      5-min Rain = 0
KVA1 250940Z 17005KT 07/M09 A3019 RMK A01 T00661091  RH  031%=      5-min Rain = 0
KVA1 250941Z 16004KT 07/M09 A3019 RMK A01 T00651091  RH  032%=      5-min Rain = 0
KVA1 250942Z 16005KT 07/M09 A3019 RMK A01 T00651090  RH  032%=      5-min Rain = 0
KVA1 250943Z 16005KT 07/M09 A3019 RMK A01 T00651090  RH  032%=      5-min Rain = 0
KVA1 250944Z 16004KT 07/M09 A3019 RMK A01 T00651090  RH  032%=      5-min Rain = 0
KVA1 250945Z 17004KT 07/M09 A3019 RMK A01 T00661090  RH  032%=      5-min Rain = 0
KVA1 250946Z 18003KT 07/M09 A3019 RMK A01 T00681090  RH  032%=      5-min Rain = 0
KVA1 250947Z 21003KT 07/M09 A3019 RMK A01 T00691090  RH  031%=      5-min Rain = 0
KVA1 250948Z 22003KT 07/M09 A3019 RMK A01 T00681092  RH  031%=      5-min Rain = 0
KVA1 250949Z 23003KT 07/M09 A3019 RMK A01 T00651094  RH  031%=      5-min Rain = 0
KVA1 250950Z 23003KT 06/M10 A3019 RMK A01 T00621095  RH  032%=      5-min Rain = 0
KVA1 250951Z 22003KT 06/M09 A3019 RMK A01 T00621093  RH  032%=      5-min Rain = 0
KVA1 250952Z 22003KT 06/M09 A3019 RMK A01 T00641092  RH  032%=      5-min Rain = 0
KVA1 250953Z 23003KT 07/M09 A3019 RMK A01 T00651092  RH  031%=      5-min Rain = 0
KVA1 250954Z 23003KT 07/M09 A3019 RMK A01 T00661092  RH  031%=      5-min Rain = 0
KVA1 250955Z 23003KT 07/M09 A3019 RMK A01 T00661093  RH  031%=      5-min Rain = 0
KVA1 250956Z 24003KT 07/M09 A3019 RMK A01 T00651093  RH  031%=      5-min Rain = 0
KVA1 250957Z 22003KT 07/M09 A3019 RMK A01 T00651093  RH  031%=      5-min Rain = 0
KVA1 250958Z 22004KT 06/M09 A3019 RMK A01 T00641094  RH  031%=      5-min Rain = 0
KVA1 250959Z 22004KT 06/M09 A3019 RMK A01 T00631093  RH  032%=      5-min Rain = 0
KVA1 251000Z 22003KT 06/M09 A3019 RMK A01 T00631092  RH  032%=      5-min Rain = 0
KVA1 251001Z 23003KT 06/M09 A3019 RMK A01 T00631092  RH  032%=      5-min Rain = 0
KVA1 251002Z 24003KT 06/M09 A3019 RMK A01 T00631091  RH  032%=      5-min Rain = 0
KVA1 251003Z 24003KT 06/M09 A3019 RMK A01 T00641091  RH  032%=      5-min Rain = 0
KVA1 251004Z 24004KT 06/M09 A3019 RMK A01 T00631093  RH  032%=      5-min Rain = 0
KVA1 251005Z 22005KT 06/M09 A3019 RMK A01 T00621094  RH  032%=      5-min Rain = 0
KVA1 251006Z 22005KT 06/M09 A3019 RMK A01 T00601094  RH  032%=      5-min Rain = 0
KVA1 251007Z 22004KT 06/M09 A3019 RMK A01 T00591093  RH  033%=      5-min Rain = 0
KVA1 251008Z 23003KT 06/M09 A3019 RMK A01 T00591091  RH  033%=      5-min Rain = 0
KVA1 251009Z 23003KT 06/M09 A3019 RMK A01 T00601091  RH  033%=      5-min Rain = 0
KVA1 251010Z 23003KT 06/M09 A3019 RMK A01 T00601091  RH  033%=      5-min Rain = 0
KVA1 251011Z 24003KT 06/M09 A3019 RMK A01 T00601092  RH  033%=      5-min Rain = 0
KVA1 251012Z 24003KT 06/M09 A3019 RMK A01 T00601092  RH  033%=      5-min Rain = 0
KVA1 251013Z 24003KT 06/M09 A3019 RMK A01 T00591092  RH  033%=      5-min Rain = 0
KVA1 251014Z 24003KT 06/M09 A302 RMK A01 T00591092  RH  033%=      5-min Rain = 0
KVA1 251015Z 24003KT 06/M09 A302 RMK A01 T00591091  RH  033%=      5-min Rain = 0
KVA1 251016Z 24003KT 06/M09 A302 RMK A01 T00591091  RH  033%=      5-min Rain = 0
KVA1 251017Z 23003KT 06/M09 A302 RMK A01 T00591090  RH  033%=      5-min Rain = 0
KVA1 251018Z 23003KT 06/M09 A302 RMK A01 T00591090  RH  034%=      5-min Rain = 0
KVA1 251019Z 23003KT 06/M09 A302 RMK A01 T00591089  RH  033%=      5-min Rain = 0
KVA1 251020Z 24002KT 06/M09 A302 RMK A01 T00601090  RH  033%=      5-min Rain = 0
KVA1 251021Z 24002KT 06/M09 A302 RMK A01 T00601089  RH  033%=      5-min Rain = 0
KVA1 251022Z 25002KT 06/M09 A302 RMK A01 T00621089  RH  033%=      5-min Rain = 0
KVA1 251023Z 26002KT 06/M09 A302 RMK A01 T00621089  RH  033%=      5-min Rain = 0
KVA1 251024Z 27003KT 06/M09 A302 RMK A01 T00621089  RH  033%=      5-min Rain = 0
KVA1 251025Z 28003KT 06/M09 A302 RMK A01 T00611091  RH  033%=      5-min Rain = 0
KVA1 251026Z 29004KT 06/M09 A3019 RMK A01 T00591093  RH  033%=      5-min Rain = 0
KVA1 251027Z 30004KT 06/M09 A3019 RMK A01 T00571094  RH  033%=      5-min Rain = 0
KVA1 251028Z 31004KT 06/M09 A3019 RMK A01 T00571094  RH  033%=      5-min Rain = 0
KVA1 251029Z 32005KT 06/M09 A3019 RMK A01 T00561094  RH  033%=      5-min Rain = 0
KVA1 251030Z 33004KT 06/M09 A3019 RMK A01 T00571094  RH  033%=      5-min Rain = 0
KVA1 251031Z 33004KT 06/M10 A3019 RMK A01 T00571095  RH  032%=      5-min Rain = 0
KVA1 251032Z 33004KT 06/M10 A3019 RMK A01 T00581096  RH  032%=      5-min Rain = 0
KVA1 251033Z 32004KT 06/M10 A3019 RMK A01 T00581096  RH  032%=      5-min Rain = 0
KVA1 251034Z 32004KT 06/M10 A3019 RMK A01 T00581096  RH  032%=      5-min Rain = 0
KVA1 251035Z 32004KT 06/M10 A3019 RMK A01 T00581096  RH  032%=      5-min Rain = 0
KVA1 251036Z 32004KT 06/M10 A3019 RMK A01 T00581096  RH  032%=      5-min Rain = 0
KVA1 251037Z 32004KT 06/M10 A3019 RMK A01 T00591096  RH  032%=      5-min Rain = 0
KVA1 251038Z 32005KT 06/M10 A3019 RMK A01 T00591096  RH  032%=      5-min Rain = 0
KVA1 251039Z 32005KT 06/M10 A3019 RMK A01 T00591097  RH  031%=      5-min Rain = 0
KVA1 251040Z 33005KT 06/M10 A3019 RMK A01 T00591098  RH  031%=      5-min Rain = 0
KVA1 251041Z 33005KT 06/M10 A3019 RMK A01 T00581099  RH  031%=      5-min Rain = 0
KVA1 251042Z 33005KT 06/M10 A3019 RMK A01 T00581099  RH  031%=      5-min Rain = 0
KVA1 251043Z 33004KT 06/M10 A3019 RMK A01 T00601098  RH  031%=      5-min Rain = 0
KVA1 251044Z 33004KT 06/M10 A3019 RMK A01 T00601099  RH  031%=      5-min Rain = 0
KVA1 251045Z 31003KT 06/M10 A302 RMK A01 T00601100  RH  031%=      5-min Rain = 0
KVA1 251046Z 27003KT 06/M10 A302 RMK A01 T00591098  RH  031%=      5-min Rain = 0
KVA1 251047Z 28004KT 06/M10 A302 RMK A01 T00591096  RH  032%=      5-min Rain = 0
KVA1 251048Z 28005KT 06/M10 A302 RMK A01 T00571097  RH  032%=      5-min Rain = 0
KVA1 251049Z 28005KT 06/M10 A302 RMK A01 T00571097  RH  032%=      5-min Rain = 0
KVA1 251050Z 30005KT 06/M10 A302 RMK A01 T00571097  RH  032%=      5-min Rain = 0
KVA1 251051Z 30005KT 06/M10 A302 RMK A01 T00581097  RH  032%=      5-min Rain = 0
KVA1 251052Z 31005KT 06/M10 A302 RMK A01 T00601097  RH  031%=      5-min Rain = 0
KVA1 251053Z 31005KT 06/M10 A302 RMK A01 T00621097  RH  031%=      5-min Rain = 0
KVA1 251054Z 31004KT 06/M10 A302 RMK A01 T00621098  RH  031%=      5-min Rain = 0
KVA1 251055Z 32003KT 06/M10 A302 RMK A01 T00621098  RH  031%=      5-min Rain = 0
KVA1 251056Z 31003KT 06/M10 A302 RMK A01 T00611098  RH  031%=      5-min Rain = 0
KVA1 251057Z 21002KT 06/M10 A302 RMK A01 T00611098  RH  031%=      5-min Rain = 0
KVA1 251058Z 28003KT 06/M10 A302 RMK A01 T00601096  RH  032%=      5-min Rain = 0
KVA1 251059Z 30005KT 06/M10 A302 RMK A01 T00601096  RH  032%=      5-min Rain = 0
KVA1 251100Z 29006KT 06/M10 A302 RMK A01 T00601096  RH  032%=      5-min Rain = 0
KVA1 251101Z 29006KT 06/M10 A302 RMK A01 T00601096  RH  032%=      5-min Rain = 0
KVA1 251102Z 29006KT 06/M10 A302 RMK A01 T00581097  RH  032%=      5-min Rain = 0
KVA1 251103Z 29006KT 06/M10 A302 RMK A01 T00571098  RH  032%=      5-min Rain = 0
KVA1 251104Z 30005KT 06/M10 A302 RMK A01 T00571099  RH  032%=      5-min Rain = 0
KVA1 251105Z 30004KT 06/M10 A302 RMK A01 T00551100  RH  032%=      5-min Rain = 0
KVA1 251106Z 30003KT 06/M10 A302 RMK A01 T00551100  RH  032%=      5-min Rain = 0
KVA1 251107Z 29002KT 06/M10 A302 RMK A01 T00551099  RH  032%=      5-min Rain = 0
KVA1 251108Z 31002KT 06/M10 A302 RMK A01 T00551096  RH  033%=      5-min Rain = 0
KVA1 251109Z 33001KT 05/M10 A302 RMK A01 T00541096  RH  033%=      5-min Rain = 0
KVA1 251110Z 31002KT 05/M10 A302 RMK A01 T00541096  RH  033%=      5-min Rain = 0
KVA1 251111Z 29002KT 05/M10 A302 RMK A01 T00531096  RH  033%=      5-min Rain = 0
KVA1 251112Z 27004KT 05/M10 A302 RMK A01 T00511097  RH  034%=      5-min Rain = 0
KVA1 251113Z 28006KT 05/M10 A302 RMK A01 T00501098  RH  034%=      5-min Rain = 0
KVA1 251114Z 28006KT 05/M10 A302 RMK A01 T00501098  RH  033%=      5-min Rain = 0
KVA1 251115Z 28005KT 05/M10 A302 RMK A01 T00501099  RH  033%=      5-min Rain = 0
KVA1 251116Z 29005KT 05/M10 A302 RMK A01 T00501099  RH  033%=      5-min Rain = 0
KVA1 251117Z 30003KT 05/M10 A302 RMK A01 T00511099  RH  033%=      5-min Rain = 0
KVA1 251118Z 30002KT 05/M10 A302 RMK A01 T00511099  RH  033%=      5-min Rain = 0
KVA1 251119Z 30001KT 05/M10 A302 RMK A01 T00521098  RH  033%=      5-min Rain = 0
KVA1 251120Z 00000KT 05/M10 A302 RMK A01 T00541097  RH  033%=      5-min Rain = 0
KVA1 251121Z 22001KT 05/M10 A302 RMK A01 T00541097  RH  033%=      5-min Rain = 0
KVA1 251122Z 20003KT 05/M10 A302 RMK A01 T00521097  RH  033%=      5-min Rain = 0
KVA1 251123Z 20005KT 05/M10 A302 RMK A01 T00501096  RH  034%=      5-min Rain = 0
KVA1 251124Z 21006KT 05/M10 A302 RMK A01 T00491095  RH  034%=      5-min Rain = 0
KVA1 251125Z 22006KT 05/M10 A302 RMK A01 T00481095  RH  035%=      5-min Rain = 0
KVA1 251126Z 23006KT 05/M10 A302 RMK A01 T00471095  RH  035%=      5-min Rain = 0
KVA1 251127Z 23005KT 05/M09 A302 RMK A01 T00481094  RH  035%=      5-min Rain = 0
KVA1 251128Z 23005KT 05/M09 A302 RMK A01 T00491094  RH  035%=      5-min Rain = 0
KVA1 251129Z 22005KT 05/M09 A302 RMK A01 T00501093  RH  035%=      5-min Rain = 0
KVA1 251130Z 20006KT 05/M09 A302 RMK A01 T00521093  RH  034%=      5-min Rain = 0
KVA1 251131Z 20006KT 05/M09 A302 RMK A01 T00541092  RH  034%=      5-min Rain = 0
KVA1 251132Z 20006KT 06/M09 A302 RMK A01 T00551091  RH  034%=      5-min Rain = 0
KVA1 251133Z 20006KT 06/M09 A302 RMK A01 T00561090  RH  034%=      5-min Rain = 0
KVA1 251134Z 20006KT 06/M09 A302 RMK A01 T00571090  RH  034%=      5-min Rain = 0
KVA1 251135Z 21005KT 06/M09 A302 RMK A01 T00571091  RH  034%=      5-min Rain = 0
KVA1 251136Z 22006KT 06/M09 A302 RMK A01 T00571091  RH  034%=      5-min Rain = 0
KVA1 251137Z 24008KT 06/M09 A302 RMK A01 T00561092  RH  034%=      5-min Rain = 0
KVA1 251138Z 25008KT 05/M09 A302 RMK A01 T00541092  RH  034%=      5-min Rain = 0
KVA1 251139Z 23008KT 05/M09 A302 RMK A01 T00531093  RH  034%=      5-min Rain = 0
KVA1 251140Z 23007KT 05/M09 A302 RMK A01 T00521092  RH  035%=      5-min Rain = 0
KVA1 251141Z 23007KT 05/M09 A3021 RMK A01 T00521092  RH  035%=      5-min Rain = 0
KVA1 251142Z 23007KT 05/M09 A3021 RMK A01 T00531091  RH  035%=      5-min Rain = 0
KVA1 251143Z 22008KT 05/M09 A3021 RMK A01 T00541089  RH  035%=      5-min Rain = 0
KVA1 251144Z 22007KT 06/M09 A3021 RMK A01 T00561089  RH  034%=      5-min Rain = 0
KVA1 251145Z 22007KT 06/M09 A3021 RMK A01 T00581088  RH  034%=      5-min Rain = 0
KVA1 251146Z 22008KT 06/M09 A3021 RMK A01 T00591088  RH  034%=      5-min Rain = 0
KVA1 251147Z 23007KT 06/M09 A3021 RMK A01 T00601087  RH  034%=      5-min Rain = 0
KVA1 251148Z 23007KT 06/M09 A3021 RMK A01 T00611086  RH  034%=      5-min Rain = 0
KVA1 251149Z 23006KT 06/M09 A3021 RMK A01 T00611086  RH  034%=      5-min Rain = 0
KVA1 251150Z 24006KT 06/M09 A3021 RMK A01 T00611086  RH  034%=      5-min Rain = 0
KVA1 251151Z 24006KT 06/M09 A3021 RMK A01 T00611086  RH  034%=      5-min Rain = 0
KVA1 251152Z 24006KT 06/M09 A3021 RMK A01 T00611085  RH  034%=      5-min Rain = 0
KVA1 251153Z 23007KT 06/M09 A3021 RMK A01 T00601085  RH  034%=      5-min Rain = 0
KVA1 251154Z 23007KT 06/M09 A3021 RMK A01 T00601085  RH  035%=      5-min Rain = 0
KVA1 251155Z 23007KT 06/M08 A3021 RMK A01 T00601084  RH  035%=      5-min Rain = 0
KVA1 251156Z 23007KT 06/M08 A3021 RMK A01 T00611084  RH  035%=      5-min Rain = 0
KVA1 251157Z 23006KT 06/M08 A3021 RMK A01 T00611083  RH  035%=      5-min Rain = 0
KVA1 251158Z 23006KT 06/M08 A3021 RMK A01 T00611083  RH  035%=      5-min Rain = 0
KVA1 251159Z 23006KT 06/M08 A3021 RMK A01 T00611082  RH  035%=      5-min Rain = 0
KVA1 251200Z 23007KT 06/M08 A3021 RMK A01 T00611082  RH  035%=      5-min Rain = 0
KVA1 251201Z 24007KT 06/M08 A3021 RMK A01 T00601082  RH  035%=      5-min Rain = 0
KVA1 251202Z 24006KT 06/M08 A3021 RMK A01 T00601082  RH  035%=      5-min Rain = 0
KVA1 251203Z 24006KT 06/M08 A3021 RMK A01 T00591082  RH  036%=      5-min Rain = 0
KVA1 251204Z 24006KT 06/M08 A3021 RMK A01 T00591081  RH  036%=      5-min Rain = 0
KVA1 251205Z 24006KT 06/M08 A3021 RMK A01 T00581082  RH  036%=      5-min Rain = 0
KVA1 251206Z 24006KT 06/M08 A3021 RMK A01 T00581081  RH  036%=      5-min Rain = 0
KVA1 251207Z 24006KT 06/M08 A3021 RMK A01 T00581081  RH  036%=      5-min Rain = 0
KVA1 251208Z 24006KT 06/M08 A3021 RMK A01 T00581081  RH  036%=      5-min Rain = 0
KVA1 251209Z 24006KT 06/M08 A3021 RMK A01 T00581080  RH  036%=      5-min Rain = 0
KVA1 251210Z 24006KT 06/M08 A3021 RMK A01 T00581080  RH  036%=      5-min Rain = 0
KVA1 251211Z 24007KT 06/M08 A3021 RMK A01 T00581080  RH  037%=      5-min Rain = 0
KVA1 251212Z 24006KT 06/M08 A3021 RMK A01 T00581079  RH  037%=      5-min Rain = 0
KVA1 251213Z 24006KT 06/M08 A3021 RMK A01 T00581079  RH  037%=      5-min Rain = 0
KVA1 251214Z 24006KT 06/M08 A3021 RMK A01 T00581079  RH  037%=      5-min Rain = 0
KVA1 251215Z 24006KT 06/M08 A3021 RMK A01 T00581079  RH  037%=      5-min Rain = 0
KVA1 251216Z 24006KT 06/M08 A3021 RMK A01 T00581078  RH  037%=      5-min Rain = 0
KVA1 251217Z 24006KT 06/M08 A3021 RMK A01 T00591078  RH  037%=      5-min Rain = 0
KVA1 251218Z 24006KT 06/M08 A3022 RMK A01 T00591078  RH  037%=      5-min Rain = 0
KVA1 251219Z 24006KT 06/M08 A3022 RMK A01 T00591078  RH  037%=      5-min Rain = 0
KVA1 251220Z 24007KT 06/M08 A3022 RMK A01 T00591078  RH  037%=      5-min Rain = 0
KVA1 251221Z 23007KT 06/M08 A3022 RMK A01 T00591078  RH  037%=      5-min Rain = 0
KVA1 251222Z 23007KT 06/M08 A3022 RMK A01 T00591077  RH  037%=      5-min Rain = 0
KVA1 251223Z 24006KT 06/M08 A3022 RMK A01 T00601077  RH  037%=      5-min Rain = 0
KVA1 251224Z 24006KT 06/M08 A3022 RMK A01 T00601077  RH  037%=      5-min Rain = 0
KVA1 251225Z 24006KT 06/M08 A3022 RMK A01 T00611077  RH  037%=      5-min Rain = 0
KVA1 251226Z 24005KT 06/M08 A3022 RMK A01 T00611077  RH  037%=      5-min Rain = 0
KVA1 251227Z 24005KT 06/M08 A3022 RMK A01 T00601077  RH  037%=      5-min Rain = 0
KVA1 251228Z 24006KT 06/M08 A3022 RMK A01 T00601077  RH  037%=      5-min Rain = 0
KVA1 251229Z 23006KT 06/M08 A3022 RMK A01 T00601077  RH  037%=      5-min Rain = 0
KVA1 251230Z 23006KT 06/M08 A3022 RMK A01 T00621076  RH  037%=      5-min Rain = 0
KVA1 251231Z 23007KT 06/M08 A3022 RMK A01 T00631075  RH  036%=      5-min Rain = 0
KVA1 251232Z 23006KT 07/M08 A3022 RMK A01 T00651075  RH  036%=      5-min Rain = 0
KVA1 251233Z 23007KT 07/M08 A3022 RMK A01 T00651076  RH  036%=      5-min Rain = 0
KVA1 251234Z 23006KT 07/M08 A3022 RMK A01 T00651076  RH  036%=      5-min Rain = 0
KVA1 251235Z 23006KT 07/M08 A3022 RMK A01 T00661076  RH  036%=      5-min Rain = 0
KVA1 251236Z 23006KT 07/M08 A3022 RMK A01 T00661076  RH  035%=      5-min Rain = 0
KVA1 251237Z 23006KT 07/M08 A3022 RMK A01 T00661077  RH  035%=      5-min Rain = 0
KVA1 251238Z 23006KT 07/M08 A3022 RMK A01 T00661076  RH  035%=      5-min Rain = 0
KVA1 251239Z 23006KT 07/M08 A3022 RMK A01 T00651077  RH  035%=      5-min Rain = 0
KVA1 251240Z 23006KT 06/M08 A3022 RMK A01 T00641077  RH  036%=      5-min Rain = 0
KVA1 251241Z 23005KT 06/M08 A3022 RMK A01 T00641077  RH  036%=      5-min Rain = 0
KVA1 251242Z 23005KT 06/M08 A3022 RMK A01 T00641077  RH  036%=      5-min Rain = 0
KVA1 251243Z 23005KT 06/M08 A3022 RMK A01 T00641077  RH  036%=      5-min Rain = 0
KVA1 251244Z 23005KT 06/M08 A3022 RMK A01 T00631077  RH  036%=      5-min Rain = 0
KVA1 251245Z 23005KT 06/M08 A3023 RMK A01 T00631077  RH  036%=      5-min Rain = 0
KVA1 251246Z 23006KT 06/M08 A3023 RMK A01 T00631077  RH  036%=      5-min Rain = 0
KVA1 251247Z 22006KT 06/M08 A3023 RMK A01 T00621077  RH  036%=      5-min Rain = 0
KVA1 251248Z 22006KT 06/M08 A3023 RMK A01 T00621077  RH  036%=      5-min Rain = 0
KVA1 251249Z 22007KT 06/M08 A3023 RMK A01 T00611077  RH  036%=      5-min Rain = 0
KVA1 251250Z 22007KT 06/M08 A3023 RMK A01 T00611077  RH  036%=      5-min Rain = 0
KVA1 251251Z 22007KT 06/M08 A3023 RMK A01 T00611077  RH  036%=      5-min Rain = 0
KVA1 251252Z 22008KT 06/M08 A3023 RMK A01 T00611077  RH  036%=      5-min Rain = 0
KVA1 251253Z 22008KT 06/M08 A3023 RMK A01 T00611077  RH  036%=      5-min Rain = 0
KVA1 251254Z 22007KT 06/M08 A3023 RMK A01 T00611077  RH  036%=      5-min Rain = 0
KVA1 251255Z 22007KT 06/M08 A3023 RMK A01 T00611078  RH  036%=      5-min Rain = 0
KVA1 251256Z 22007KT 06/M08 A3023 RMK A01 T00611078  RH  036%=      5-min Rain = 0
KVA1 251257Z 22007KT 06/M08 A3023 RMK A01 T00611078  RH  036%=      5-min Rain = 0
KVA1 251258Z 22007KT 06/M08 A3023 RMK A01 T00611079  RH  036%=      5-min Rain = 0
KVA1 251259Z 22007KT 06/M08 A3023 RMK A01 T00611079  RH  036%=      5-min Rain = 0
KVA1 251300Z 22007KT 06/M08 A3023 RMK A01 T00611079  RH  036%=      5-min Rain = 0
KVA1 251301Z 22006KT 06/M08 A3023 RMK A01 T00611080  RH  036%=      5-min Rain = 0
KVA1 251302Z 22006KT 06/M08 A3023 RMK A01 T00611080  RH  035%=      5-min Rain = 0
KVA1 251303Z 22006KT 06/M08 A3023 RMK A01 T00621080  RH  035%=      5-min Rain = 0
KVA1 251304Z 22006KT 06/M08 A3023 RMK A01 T00621080  RH  036%=      5-min Rain = 0
KVA1 251305Z 22007KT 06/M08 A3023 RMK A01 T00621080  RH  036%=      5-min Rain = 0
KVA1 251306Z 22006KT 06/M08 A3023 RMK A01 T00631079  RH  035%=      5-min Rain = 0
KVA1 251307Z 22005KT 06/M08 A3023 RMK A01 T00631079  RH  035%=      5-min Rain = 0
KVA1 251308Z 22005KT 06/M08 A3024 RMK A01 T00641079  RH  035%=      5-min Rain = 0
KVA1 251309Z 22004KT 06/M08 A3024 RMK A01 T00631079  RH  035%=      5-min Rain = 0
KVA1 251310Z 23004KT 06/M08 A3024 RMK A01 T00631079  RH  036%=      5-min Rain = 0
KVA1 251311Z 23004KT 06/M08 A3024 RMK A01 T00631078  RH  036%=      5-min Rain = 0
KVA1 251312Z 24004KT 06/M08 A3024 RMK A01 T00621078  RH  036%=      5-min Rain = 0
KVA1 251313Z 24005KT 06/M08 A3024 RMK A01 T00621078  RH  036%=      5-min Rain = 0
KVA1 251314Z 24006KT 06/M08 A3024 RMK A01 T00611078  RH  036%=      5-min Rain = 0
KVA1 251315Z 25006KT 06/M08 A3024 RMK A01 T00611078  RH  036%=      5-min Rain = 0
KVA1 251316Z 25006KT 06/M08 A3024 RMK A01 T00601078  RH  036%=      5-min Rain = 0
KVA1 251317Z 25006KT 06/M08 A3024 RMK A01 T00601078  RH  036%=      5-min Rain = 0
KVA1 251318Z 25005KT 06/M08 A3024 RMK A01 T00591078  RH  037%=      5-min Rain = 0
KVA1 251319Z 25004KT 06/M08 A3024 RMK A01 T00591077  RH  037%=      5-min Rain = 0
KVA1 251320Z 24005KT 06/M08 A3024 RMK A01 T00591077  RH  037%=      5-min Rain = 0
KVA1 251321Z 24006KT 06/M08 A3024 RMK A01 T00601077  RH  037%=      5-min Rain = 0
KVA1 251322Z 24006KT 06/M08 A3023 RMK A01 T00601077  RH  037%=      5-min Rain = 0
KVA1 251323Z 24006KT 06/M08 A3023 RMK A01 T00611077  RH  037%=      5-min Rain = 0
KVA1 251324Z 24005KT 06/M08 A3024 RMK A01 T00611076  RH  037%=      5-min Rain = 0
KVA1 251325Z 24005KT 06/M08 A3024 RMK A01 T00621076  RH  036%=      5-min Rain = 0
KVA1 251326Z 24005KT 06/M08 A3024 RMK A01 T00621076  RH  036%=      5-min Rain = 0
KVA1 251327Z 24005KT 06/M08 A3024 RMK A01 T00631076  RH  036%=      5-min Rain = 0
KVA1 251328Z 24005KT 06/M08 A3024 RMK A01 T00641075  RH  036%=      5-min Rain = 0
KVA1 251329Z 24005KT 06/M08 A3024 RMK A01 T00641075  RH  036%=      5-min Rain = 0
KVA1 251330Z 24005KT 07/M08 A3024 RMK A01 T00651075  RH  036%=      5-min Rain = 0
KVA1 251331Z 24005KT 07/M08 A3024 RMK A01 T00651076  RH  036%=      5-min Rain = 0
KVA1 251332Z 24004KT 07/M08 A3024 RMK A01 T00671076  RH  035%=      5-min Rain = 0
KVA1 251333Z 24004KT 07/M08 A3024 RMK A01 T00681075  RH  035%=      5-min Rain = 0
KVA1 251334Z 25003KT 07/M08 A3024 RMK A01 T00681075  RH  035%=      5-min Rain = 0
KVA1 251335Z 25002KT 07/M08 A3024 RMK A01 T00691075  RH  035%=      5-min Rain = 0
KVA1 251336Z 25003KT 07/M08 A3024 RMK A01 T00691075  RH  035%=      5-min Rain = 0
KVA1 251337Z 25003KT 07/M08 A3024 RMK A01 T00691076  RH  035%=      5-min Rain = 0
KVA1 251338Z 25003KT 07/M08 A3024 RMK A01 T00691075  RH  035%=      5-min Rain = 0
KVA1 251339Z 25003KT 07/M08 A3024 RMK A01 T00701075  RH  035%=      5-min Rain = 0
KVA1 251340Z 25003KT 07/M08 A3024 RMK A01 T00701075  RH  035%=      5-min Rain = 0
KVA1 251341Z 25003KT 07/M08 A3024 RMK A01 T00701075  RH  035%=      5-min Rain = 0
KVA1 251342Z 25003KT 07/M08 A3024 RMK A01 T00711075  RH  035%=      5-min Rain = 0
KVA1 251343Z 25004KT 07/M07 A3024 RMK A01 T00721074  RH  035%=      5-min Rain = 0
KVA1 251344Z 25005KT 07/M07 A3024 RMK A01 T00731074  RH  034%=      5-min Rain = 0
KVA1 251345Z 25005KT 07/M08 A3024 RMK A01 T00741075  RH  034%=      5-min Rain = 0
KVA1 251346Z 25004KT 08/M08 A3024 RMK A01 T00761075  RH  033%=      5-min Rain = 0
KVA1 251347Z 25004KT 08/M08 A3024 RMK A01 T00771075  RH  033%=      5-min Rain = 0
KVA1 251348Z 25004KT 08/M08 A3024 RMK A01 T00781076  RH  033%=      5-min Rain = 0
KVA1 251349Z 25004KT 08/M08 A3024 RMK A01 T00801076  RH  032%=      5-min Rain = 0
KVA1 251350Z 25004KT 08/M08 A3024 RMK A01 T00821075  RH  032%=      5-min Rain = 0
KVA1 251351Z 26003KT 08/M08 A3024 RMK A01 T00831075  RH  032%=      5-min Rain = 0
KVA1 251352Z 26002KT 08/M08 A3024 RMK A01 T00841076  RH  031%=      5-min Rain = 0
KVA1 251353Z 26002KT 09/M08 A3024 RMK A01 T00861077  RH  031%=      5-min Rain = 0
KVA1 251354Z 26002KT 09/M08 A3024 RMK A01 T00871079  RH  030%=      5-min Rain = 0
KVA1 251355Z 25002KT 09/M08 A3025 RMK A01 T00881079  RH  030%=      5-min Rain = 0
KVA1 251356Z 24002KT 09/M08 A3025 RMK A01 T00891080  RH  029%=      5-min Rain = 0
KVA1 251357Z 22001KT 09/M08 A3025 RMK A01 T00901079  RH  029%=      5-min Rain = 0
KVA1 251358Z 23001KT 09/M08 A3025 RMK A01 T00901079  RH  029%=      5-min Rain = 0
KVA1 251359Z 24001KT 09/M08 A3025 RMK A01 T00911078  RH  029%=      5-min Rain = 0
KVA1 251400Z 24000KT 09/M08 A3025 RMK A01 T00921078  RH  029%=      5-min Rain = 0
KVA1 251401Z 00000KT 09/M08 A3025 RMK A01 T00931078  RH  029%=      5-min Rain = 0
KVA1 251402Z 00000KT 10/M08 A3025 RMK A01 T00951078  RH  029%=      5-min Rain = 0
KVA1 251403Z 00000KT 10/M08 A3025 RMK A01 T00971077  RH  029%=      5-min Rain = 0
KVA1 251404Z 13000KT 10/M08 A3025 RMK A01 T01001076  RH  028%=      5-min Rain = 0
KVA1 251405Z 13001KT 10/M08 A3025 RMK A01 T01021076  RH  028%=      5-min Rain = 0
KVA1 251406Z 13000KT 10/M08 A3025 RMK A01 T01041076  RH  027%=      5-min Rain = 0
KVA1 251407Z 13000KT 11/M08 A3025 RMK A01 T01061075  RH  027%=      5-min Rain = 0
KVA1 251408Z 13002KT 11/M07 A3025 RMK A01 T01091074  RH  027%=      5-min Rain = 0
KVA1 251409Z 15002KT 11/M07 A3025 RMK A01 T01091072  RH  027%=      5-min Rain = 0
KVA1 251410Z 19001KT 11/M07 A3025 RMK A01 T01071072  RH  028%=      5-min Rain = 0
KVA1 251411Z 15001KT 10/M07 A3025 RMK A01 T01041072  RH  028%=      5-min Rain = 0
KVA1 251412Z 12002KT 10/M07 A3025 RMK A01 T01041071  RH  029%=      5-min Rain = 0
KVA1 251413Z 11001KT 10/M07 A3025 RMK A01 T01041071  RH  029%=      5-min Rain = 0
KVA1 251414Z 12000KT 10/M07 A3025 RMK A01 T01041070  RH  029%=      5-min Rain = 0
KVA1 251415Z 08000KT 10/M07 A3025 RMK A01 T01041070  RH  029%=      5-min Rain = 0
KVA1 251416Z 08001KT 11/M07 A3025 RMK A01 T01051071  RH  028%=      5-min Rain = 0
KVA1 251417Z 15000KT 11/M07 A3025 RMK A01 T01051071  RH  028%=      5-min Rain = 0
KVA1 251418Z 15001KT 11/M07 A3025 RMK A01 T01051070  RH  028%=      5-min Rain = 0
KVA1 251419Z 14000KT 11/M07 A3026 RMK A01 T01051070  RH  028%=      5-min Rain = 0
KVA1 251420Z 08000KT 11/M07 A3026 RMK A01 T01061071  RH  028%=      5-min Rain = 0
KVA1 251421Z 06001KT 11/M07 A3026 RMK A01 T01061070  RH  028%=      5-min Rain = 0
KVA1 251422Z 06001KT 11/M07 A3026 RMK A01 T01071069  RH  028%=      5-min Rain = 0
KVA1 251423Z 06001KT 11/M07 A3026 RMK A01 T01081068  RH  028%=      5-min Rain = 0
KVA1 251424Z 05001KT 11/M07 A3026 RMK A01 T01091067  RH  028%=      5-min Rain = 0
KVA1 251425Z 05001KT 11/M07 A3026 RMK A01 T01101070  RH  027%=      5-min Rain = 0
KVA1 251426Z 04002KT 11/M07 A3026 RMK A01 T01111070  RH  027%=      5-min Rain = 0
KVA1 251427Z 04003KT 11/M07 A3026 RMK A01 T01131071  RH  027%=      5-min Rain = 0
KVA1 251428Z 04002KT 11/M07 A3026 RMK A01 T01131070  RH  027%=      5-min Rain = 0
KVA1 251429Z 04003KT 11/M07 A3026 RMK A01 T01131070  RH  027%=      5-min Rain = 0
KVA1 251430Z 03003KT 11/M07 A3026 RMK A01 T01141070  RH  027%=      5-min Rain = 0
KVA1 251431Z 03003KT 12/M07 A3026 RMK A01 T01161069  RH  027%=      5-min Rain = 0
KVA1 251432Z 03003KT 12/M07 A3026 RMK A01 T01171069  RH  027%=      5-min Rain = 0
KVA1 251433Z 03004KT 12/M07 A3026 RMK A01 T01191070  RH  026%=      5-min Rain = 0
KVA1 251434Z 04004KT 12/M07 A3026 RMK A01 T01211074  RH  025%=      5-min Rain = 0
KVA1 251435Z 04004KT 12/M08 A3026 RMK A01 T01221075  RH  025%=      5-min Rain = 0
KVA1 251436Z 03005KT 12/M08 A3026 RMK A01 T01221078  RH  024%=      5-min Rain = 0
KVA1 251437Z 04005KT 12/M08 A3026 RMK A01 T01231079  RH  024%=      5-min Rain = 0
KVA1 251438Z 03005KT 12/M08 A3026 RMK A01 T01231082  RH  023%=      5-min Rain = 0
KVA1 251439Z 03004KT 12/M08 A3026 RMK A01 T01231081  RH  023%=      5-min Rain = 0
KVA1 251440Z 03004KT 12/M08 A3026 RMK A01 T01231081  RH  023%=      5-min Rain = 0
KVA1 251441Z 04003KT 12/M08 A3027 RMK A01 T01241079  RH  023%=      5-min Rain = 0
KVA1 251442Z 03003KT 12/M08 A3027 RMK A01 T01241079  RH  023%=      5-min Rain = 0
KVA1 251443Z 03003KT 13/M08 A3027 RMK A01 T01251079  RH  023%=      5-min Rain = 0
KVA1 251444Z 03003KT 13/M08 A3027 RMK A01 T01261078  RH  023%=      5-min Rain = 0
KVA1 251445Z 03004KT 13/M08 A3027 RMK A01 T01271079  RH  023%=      5-min Rain = 0
KVA1 251446Z 05004KT 13/M08 A3027 RMK A01 T01271078  RH  023%=      5-min Rain = 0
KVA1 251447Z 04004KT 13/M08 A3027 RMK A01 T01271079  RH  023%=      5-min Rain = 0
KVA1 251448Z 04003KT 13/M08 A3027 RMK A01 T01271079  RH  023%=      5-min Rain = 0
KVA1 251449Z 04003KT 13/M08 A3027 RMK A01 T01261080  RH  023%=      5-min Rain = 0
KVA1 251450Z 05003KT 13/M08 A3027 RMK A01 T01251078  RH  023%=      5-min Rain = 0
KVA1 251451Z 06003KT 13/M08 A3027 RMK A01 T01261078  RH  023%=      5-min Rain = 0
KVA1 251452Z 04003KT 13/M08 A3027 RMK A01 T01271077  RH  024%=      5-min Rain = 0
KVA1 251453Z 04003KT 13/M08 A3027 RMK A01 T01271078  RH  023%=      5-min Rain = 0
KVA1 251454Z 04003KT 13/M08 A3027 RMK A01 T01271078  RH  023%=      5-min Rain = 0
KVA1 251455Z 04002KT 13/M08 A3027 RMK A01 T01261077  RH  023%=      5-min Rain = 0
KVA1 251456Z 07002KT 13/M07 A3027 RMK A01 T01271074  RH  024%=      5-min Rain = 0
KVA1 251457Z 07002KT 13/M07 A3027 RMK A01 T01281073  RH  024%=      5-min Rain = 0
KVA1 251458Z 07003KT 13/M07 A3027 RMK A01 T01301069  RH  024%=      5-min Rain = 0
KVA1 251459Z 08003KT 13/M07 A3027 RMK A01 T01321071  RH  024%=      5-min Rain = 0
KVA1 251500Z 07003KT 13/M07 A3027 RMK A01 T01331072  RH  023%=      5-min Rain = 0
KVA1 251501Z 06003KT 13/M08 A3027 RMK A01 T01321075  RH  023%=      5-min Rain = 0
KVA1 251502Z 05004KT 13/M08 A3027 RMK A01 T01311075  RH  023%=      5-min Rain = 0
KVA1 251503Z 06004KT 13/M07 A3027 RMK A01 T01311074  RH  023%=      5-min Rain = 0
KVA1 251504Z 06004KT 13/M07 A3027 RMK A01 T01311073  RH  023%=      5-min Rain = 0
KVA1 251505Z 06004KT 13/M07 A3027 RMK A01 T01311072  RH  024%=      5-min Rain = 0
KVA1 251506Z 05004KT 13/M07 A3027 RMK A01 T01311072  RH  024%=      5-min Rain = 0
KVA1 251507Z 05004KT 13/M07 A3027 RMK A01 T01321070  RH  024%=      5-min Rain = 0
KVA1 251508Z 05003KT 13/M07 A3027 RMK A01 T01331073  RH  023%=      5-min Rain = 0
KVA1 251509Z 07002KT 13/M07 A3027 RMK A01 T01331073  RH  023%=      5-min Rain = 0
KVA1 251510Z 05003KT 14/M07 A3027 RMK A01 T01351071  RH  023%=      5-min Rain = 0
KVA1 251511Z 03003KT 14/M07 A3028 RMK A01 T01361070  RH  023%=      5-min Rain = 0
KVA1 251512Z 05003KT 14/M07 A3028 RMK A01 T01381071  RH  023%=      5-min Rain = 0
KVA1 251513Z 05004KT 14/M07 A3028 RMK A01 T01391072  RH  023%=      5-min Rain = 0
KVA1 251514Z 04005KT 14/M07 A3028 RMK A01 T01401073  RH  022%=      5-min Rain = 0
KVA1 251515Z 04005KT 14/M07 A3028 RMK A01 T01431073  RH  022%=      5-min Rain = 0
KVA1 251516Z 05005KT 14/M08 A3028 RMK A01 T01441076  RH  021%=      5-min Rain = 0
KVA1 251517Z 03005KT 14/M08 A3028 RMK A01 T01441077  RH  021%=      5-min Rain = 0
KVA1 251518Z 04005KT 14/M08 A3028 RMK A01 T01441075  RH  021%=      5-min Rain = 0
KVA1 251519Z 05004KT 15/M08 A3028 RMK A01 T01461075  RH  021%=      5-min Rain = 0
KVA1 251520Z 06005KT 15/M07 A3028 RMK A01 T01481072  RH  021%=      5-min Rain = 0
KVA1 251521Z 05006KT 15/M08 A3028 RMK A01 T01501076  RH  020%=      5-min Rain = 0
KVA1 251522Z 04005KT 15/M08 A3028 RMK A01 T01501075  RH  020%=      5-min Rain = 0
KVA1 251523Z 05005KT 15/M08 A3028 RMK A01 T01511075  RH  020%=      5-min Rain = 0
KVA1 251524Z 05006KT 15/M08 A3028 RMK A01 T01531076  RH  020%=      5-min Rain = 0
KVA1 251525Z 06006KT 15/M08 A3028 RMK A01 T01541077  RH  020%=      5-min Rain = 0
KVA1 251526Z 06007KT 15/M08 A3028 RMK A01 T01541078  RH  019%=      5-min Rain = 0
KVA1 251527Z 06006KT 15/M08 A3028 RMK A01 T01531078  RH  020%=      5-min Rain = 0
KVA1 251528Z 05006KT 15/M08 A3028 RMK A01 T01531078  RH  020%=      5-min Rain = 0
KVA1 251529Z 07007KT 15/M08 A3028 RMK A01 T01541078  RH  020%=      5-min Rain = 0
KVA1 251530Z 05007KT 16/M08 A3028 RMK A01 T01551080  RH  019%=      5-min Rain = 0
KVA1 251531Z 06006KT 16/M08 A3028 RMK A01 T01561077  RH  019%=      5-min Rain = 0
KVA1 251532Z 05007KT 16/M08 A3028 RMK A01 T01581078  RH  019%=      5-min Rain = 0
KVA1 251533Z 05007KT 16/M08 A3028 RMK A01 T01581079  RH  019%=      5-min Rain = 0
KVA1 251534Z 06007KT 16/M08 A3028 RMK A01 T01591079  RH  019%=      5-min Rain = 0
KVA1 251535Z 05006KT 16/M08 A3028 RMK A01 T01601078  RH  019%=      5-min Rain = 0
KVA1 251536Z 06007KT 16/M08 A3028 RMK A01 T01611079  RH  018%=      5-min Rain = 0
KVA1 251537Z 05008KT 16/M08 A3028 RMK A01 T01621080  RH  018%=      5-min Rain = 0
KVA1 251538Z 05007KT 16/M08 A3028 RMK A01 T01631080  RH  018%=      5-min Rain = 0
KVA1 251539Z 04008KT 16/M08 A3028 RMK A01 T01621080  RH  018%=      5-min Rain = 0
KVA1 251540Z 03007KT 16/M08 A3028 RMK A01 T01611081  RH  018%=      5-min Rain = 0
KVA1 251541Z 05006KT 16/M08 A3028 RMK A01 T01621083  RH  018%=      5-min Rain = 0
KVA1 251542Z 05006KT 17/M08 A3028 RMK A01 T01651079  RH  018%=      5-min Rain = 0
KVA1 251543Z 04006KT 17/M08 A3028 RMK A01 T01691076  RH  018%=      5-min Rain = 0
KVA1 251544Z 03009KT 17/M08 A3028 RMK A01 T01701079  RH  017%=      5-min Rain = 0
KVA1 251545Z 03007KT 17/M08 A3028 RMK A01 T01691080  RH  017%=      5-min Rain = 0
KVA1 251546Z 04008KT 17/M08 A3028 RMK A01 T01701077  RH  018%=      5-min Rain = 0
KVA1 251547Z 05008KT 17/M08 A3028 RMK A01 T01711079  RH  017%=      5-min Rain = 0
KVA1 251548Z 06006KT 17/M08 A3029 RMK A01 T01721080  RH  017%=      5-min Rain = 0
KVA1 251549Z 05008KT 17/M08 A3029 RMK A01 T01731079  RH  017%=      5-min Rain = 0
KVA1 251550Z 05008KT 17/M08 A3029 RMK A01 T01741081  RH  017%=      5-min Rain = 0
KVA1 251551Z 05009KT 17/M08 A3029 RMK A01 T01731082  RH  017%=      5-min Rain = 0
KVA1 251552Z 05009KT 17/M08 A3029 RMK A01 T01721081  RH  017%=      5-min Rain = 0
KVA1 251553Z 05008KT 17/M08 A3029 RMK A01 T01711081  RH  017%=      5-min Rain = 0
KVA1 251554Z 04006KT 17/M08 A3029 RMK A01 T01721078  RH  017%=      5-min Rain = 0
KVA1 251555Z 05008KT 18/M08 A3029 RMK A01 T01751077  RH  017%=      5-min Rain = 0
KVA1 251556Z 04007KT 18/M08 A3029 RMK A01 T01751078  RH  017%=      5-min Rain = 0
KVA1 251557Z 05010KT 17/M08 A3029 RMK A01 T01731078  RH  017%=      5-min Rain = 0
KVA1 251558Z 04011KT 17/M08 A3029 RMK A01 T01711078  RH  017%=      5-min Rain = 0
KVA1 251559Z 05009KT 17/M08 A3029 RMK A01 T01711078  RH  017%=      5-min Rain = 0
KVA1 251600Z 05009KT 17/M08 A3029 RMK A01 T01731076  RH  017%=      5-min Rain = 0
KVA1 251601Z 04008KT 17/M07 A3029 RMK A01 T01741074  RH  018%=      5-min Rain = 0
KVA1 251602Z 02008KT 18/M07 A3029 RMK A01 T01761073  RH  018%=      5-min Rain = 0
KVA1 251603Z 02009KT 18/M08 A3029 RMK A01 T01771076  RH  017%=      5-min Rain = 0
KVA1 251604Z 03009KT 18/M08 A3029 RMK A01 T01781078  RH  017%=      5-min Rain = 0
KVA1 251605Z 03008KT 18/M08 A3029 RMK A01 T01761080  RH  017%=      5-min Rain = 0
KVA1 251606Z 04007KT 18/M08 A3029 RMK A01 T01761078  RH  017%=      5-min Rain = 0
KVA1 251607Z 03007KT 18/M08 A3029 RMK A01 T01771077  RH  017%=      5-min Rain = 0
KVA1 251608Z 04008KT 18/M08 A3029 RMK A01 T01791079  RH  016%=      5-min Rain = 0
KVA1 251609Z 04008KT 18/M08 A3029 RMK A01 T01801080  RH  016%=      5-min Rain = 0
KVA1 251610Z 04008KT 18/M08 A3029 RMK A01 T01791080  RH  016%=      5-min Rain = 0
KVA1 251611Z 05007KT 18/M08 A3029 RMK A01 T01791078  RH  017%=      5-min Rain = 0
KVA1 251612Z 04008KT 18/M08 A3029 RMK A01 T01811077  RH  017%=      5-min Rain = 0
KVA1 251613Z 02009KT 18/M08 A3029 RMK A01 T01831077  RH  016%=      5-min Rain = 0
KVA1 251614Z 02008KT 18/M08 A3029 RMK A01 T01841080  RH  016%=      5-min Rain = 0
KVA1 251615Z 03009KT 19/M08 A3029 RMK A01 T01861079  RH  016%=      5-min Rain = 0
KVA1 251616Z 03010KT 19/M08 A3029 RMK A01 T01871080  RH  016%=      5-min Rain = 0
KVA1 251617Z 04010KT 19/M08 A3029 RMK A01 T01861081  RH  016%=      5-min Rain = 0
KVA1 251618Z 04010KT 19/M08 A3029 RMK A01 T01851081  RH  016%=      5-min Rain = 0
KVA1 251619Z 03010KT 19/M08 A3029 RMK A01 T01851079  RH  016%=      5-min Rain = 0
KVA1 251620Z 04011KT 19/M08 A3029 RMK A01 T01861079  RH  016%=      5-min Rain = 0
KVA1 251621Z 04011KT 19/M08 A3029 RMK A01 T01861079  RH  016%=      5-min Rain = 0
KVA1 251622Z 02010KT 19/M08 A3029 RMK A01 T01861078  RH  016%=      5-min Rain = 0
KVA1 251623Z 02010KT 19/M08 A3029 RMK A01 T01881077  RH  016%=      5-min Rain = 0
KVA1 251624Z 03008KT 19/M08 A3029 RMK A01 T01891077  RH  016%=      5-min Rain = 0
KVA1 251625Z 04007KT 19/M08 A3029 RMK A01 T01911076  RH  016%=      5-min Rain = 0
KVA1 251626Z 04007KT 19/M08 A3029 RMK A01 T01921076  RH  015%=      5-min Rain = 0
KVA1 251627Z 04010KT 19/M08 A3029 RMK A01 T01931076  RH  015%=      5-min Rain = 0
KVA1 251628Z 04010KT 19/M08 A3029 RMK A01 T01931077  RH  015%=      5-min Rain = 0
KVA1 251629Z 04011KT 19/M08 A3029 RMK A01 T01921077  RH  015%=      5-min Rain = 0
KVA1 251630Z 03011KT 19/M08 A3029 RMK A01 T01921077  RH  015%=      5-min Rain = 0
KVA1 251631Z 03010KT 19/M08 A3029 RMK A01 T01911077  RH  016%=      5-min Rain = 0
KVA1 251632Z 04012KT 19/M08 A3029 RMK A01 T01921075  RH  016%=      5-min Rain = 0
KVA1 251633Z 04011KT 19/M08 A3029 RMK A01 T01931076  RH  015%=      5-min Rain = 0
KVA1 251634Z 05008KT 19/M08 A3029 RMK A01 T01921075  RH  016%=      5-min Rain = 0
KVA1 251635Z 04010KT 19/M07 A3029 RMK A01 T01931074  RH  016%=      5-min Rain = 0
KVA1 251636Z 03009KT 19/M07 A3028 RMK A01 T01941074  RH  016%=      5-min Rain = 0
KVA1 251637Z 05011KT 20/M07 A3029 RMK A01 T01961072  RH  016%=      5-min Rain = 0
KVA1 251638Z 05009KT 20/M07 A3029 RMK A01 T01961074  RH  015%=      5-min Rain = 0
KVA1 251639Z 06008KT 20/M07 A3028 RMK A01 T01951073  RH  016%=      5-min Rain = 0
KVA1 251640Z 06011KT 19/M07 A3028 RMK A01 T01941072  RH  016%=      5-min Rain = 0
KVA1 251641Z 06009KT 20/M07 A3029 RMK A01 T01961070  RH  016%=      5-min Rain = 0
KVA1 251642Z 05011KT 20/M07 A3029 RMK A01 T01981070  RH  016%=      5-min Rain = 0
KVA1 251643Z 05013KT 20/M07 A3029 RMK A01 T01981071  RH  016%=      5-min Rain = 0
KVA1 251644Z 05012KT 20/M07 A3029 RMK A01 T01971071  RH  016%=      5-min Rain = 0
KVA1 251645Z 04010KT 20/M07 A3029 RMK A01 T01961071  RH  016%=      5-min Rain = 0
KVA1 251646Z 04012KT 20/M07 A3029 RMK A01 T01961070  RH  016%=      5-min Rain = 0
KVA1 251647Z 04011KT 20/M07 A3029 RMK A01 T01961071  RH  016%=      5-min Rain = 0
KVA1 251648Z 04009G14KT 20/M07 A3029 RMK A01 T01961070  RH  016%=      5-min Rain = 0
KVA1 251649Z 04011KT 20/M07 A3029 RMK A01 T01971069  RH  016%=      5-min Rain = 0
KVA1 251650Z 04009KT 20/M07 A3029 RMK A01 T01951069  RH  016%=      5-min Rain = 0
KVA1 251651Z 03010KT 19/M07 A3029 RMK A01 T01941069  RH  016%=      5-min Rain = 0
KVA1 251652Z 03010KT 20/M07 A3029 RMK A01 T01951069  RH  016%=      5-min Rain = 0
KVA1 251653Z 05008KT 20/M07 A3029 RMK A01 T01961069  RH  016%=      5-min Rain = 0
KVA1 251654Z 04010KT 20/M07 A3029 RMK A01 T01951068  RH  016%=      5-min Rain = 0
KVA1 251655Z 04011KT 20/M07 A3029 RMK A01 T01961068  RH  016%=      5-min Rain = 0
KVA1 251656Z 04011KT 20/M07 A3029 RMK A01 T01951070  RH  016%=      5-min Rain = 0
KVA1 251657Z 05008KT 19/M07 A3029 RMK A01 T01941069  RH  016%=      5-min Rain = 0
KVA1 251658Z 05006KT 20/M07 A3029 RMK A01 T01961068  RH  016%=      5-min Rain = 0
KVA1 251659Z 06008KT 20/M07 A3029 RMK A01 T01981067  RH  016%=      5-min Rain = 0
KVA1 251700Z 05010KT 20/M07 A3029 RMK A01 T02001068  RH  016%=      5-min Rain = 0
KVA1 251701Z 04010KT 20/M07 A3029 RMK A01 T02001070  RH  016%=      5-min Rain = 0
KVA1 251702Z 04009KT 20/M07 A3029 RMK A01 T01991069  RH  016%=      5-min Rain = 0
KVA1 251703Z 02009KT 20/M07 A3029 RMK A01 T01991068  RH  016%=      5-min Rain = 0
KVA1 251704Z 03011KT 20/M07 A3029 RMK A01 T01991070  RH  016%=      5-min Rain = 0
KVA1 251705Z 03010KT 20/M07 A3029 RMK A01 T01981069  RH  016%=      5-min Rain = 0
KVA1 251706Z 03008KT 20/M07 A3029 RMK A01 T01981068  RH  016%=      5-min Rain = 0
KVA1 251707Z 04008KT 20/M07 A3029 RMK A01 T01981070  RH  016%=      5-min Rain = 0
KVA1 251708Z 05009KT 20/M07 A3029 RMK A01 T01981072  RH  015%=      5-min Rain = 0
KVA1 251709Z 06008KT 20/M07 A3029 RMK A01 T01961071  RH  016%=      5-min Rain = 0
KVA1 251710Z 04008KT 20/M07 A3029 RMK A01 T01961069  RH  016%=      5-min Rain = 0
KVA1 251711Z 04008KT 20/M07 A3029 RMK A01 T01971068  RH  016%=      5-min Rain = 0
KVA1 251712Z 03008KT 20/M07 A3029 RMK A01 T01971068  RH  016%=      5-min Rain = 0
KVA1 251713Z 05010KT 20/M07 A3029 RMK A01 T01991067  RH  016%=      5-min Rain = 0
KVA1 251714Z 05009KT 20/M07 A3029 RMK A01 T02001069  RH  016%=      5-min Rain = 0
KVA1 251715Z 05008KT 20/M07 A3029 RMK A01 T02001068  RH  016%=      5-min Rain = 0
KVA1 251716Z 02006KT 20/M07 A3029 RMK A01 T02011067  RH  016%=      5-min Rain = 0
KVA1 251717Z 04010G15KT 20/M07 A3028 RMK A01 T02031066  RH  016%=      5-min Rain = 0
KVA1 251718Z 05009KT 20/M07 A3028 RMK A01 T02041066  RH  016%=      5-min Rain = 0
KVA1 251719Z 04008KT 21/M07 A3028 RMK A01 T02051067  RH  015%=      5-min Rain = 0
KVA1 251720Z 05008KT 21/M07 A3028 RMK A01 T02051066  RH  015%=      5-min Rain = 0
KVA1 251721Z 03008KT 20/M07 A3028 RMK A01 T02041068  RH  015%=      5-min Rain = 0
KVA1 251722Z 05009KT 20/M07 A3028 RMK A01 T02031067  RH  016%=      5-min Rain = 0
KVA1 251723Z 04012KT 20/M07 A3028 RMK A01 T02041066  RH  016%=      5-min Rain = 0
KVA1 251724Z 05008KT 21/M07 A3028 RMK A01 T02061066  RH  015%=      5-min Rain = 0
KVA1 251725Z 07005KT 21/M07 A3028 RMK A01 T02061067  RH  015%=      5-min Rain = 0
KVA1 251726Z 06005KT 21/M07 A3028 RMK A01 T02061065  RH  015%=      5-min Rain = 0
KVA1 251727Z 05007KT 21/M07 A3028 RMK A01 T02071067  RH  015%=      5-min Rain = 0
KVA1 251728Z 04008KT 21/M07 A3028 RMK A01 T02081066  RH  015%=      5-min Rain = 0
KVA1 251729Z 04010KT 21/M07 A3028 RMK A01 T02111068  RH  015%=      5-min Rain = 0
KVA1 251730Z 04010KT 21/M07 A3028 RMK A01 T02131070  RH  014%=      5-min Rain = 0
KVA1 251731Z 06009KT 22/M07 A3028 RMK A01 T02151070  RH  014%=      5-min Rain = 0
KVA1 251732Z 06011KT 22/M07 A3028 RMK A01 T02151070  RH  014%=      5-min Rain = 0
KVA1 251733Z 04009KT 22/M07 A3028 RMK A01 T02151069  RH  014%=      5-min Rain = 0
KVA1 251734Z 02008KT 21/M07 A3028 RMK A01 T02141069  RH  014%=      5-min Rain = 0
KVA1 251735Z 03008KT 21/M07 A3028 RMK A01 T02131068  RH  015%=      5-min Rain = 0
KVA1 251736Z 04011KT 21/M07 A3028 RMK A01 T02141067  RH  015%=      5-min Rain = 0
KVA1 251737Z 06012KT 22/M07 A3028 RMK A01 T02151069  RH  014%=      5-min Rain = 0
KVA1 251738Z 07010KT 22/M07 A3028 RMK A01 T02161071  RH  014%=      5-min Rain = 0
KVA1 251739Z 06010KT 22/M07 A3028 RMK A01 T02151071  RH  014%=      5-min Rain = 0
KVA1 251740Z 06008KT 22/M07 A3028 RMK A01 T02151069  RH  014%=      5-min Rain = 0
KVA1 251741Z 06007KT 22/M07 A3028 RMK A01 T02161068  RH  014%=      5-min Rain = 0
KVA1 251742Z 06007KT 22/M07 A3028 RMK A01 T02191066  RH  014%=      5-min Rain = 0
KVA1 251743Z 04008KT 22/M07 A3028 RMK A01 T02211070  RH  014%=      5-min Rain = 0
KVA1 251744Z 05007KT 22/M07 A3028 RMK A01 T02211070  RH  014%=      5-min Rain = 0
KVA1 251745Z 06009KT 22/M07 A3028 RMK A01 T02211070  RH  014%=      5-min Rain = 0
KVA1 251746Z 04006G11KT 22/M07 A3027 RMK A01 T02201071  RH  014%=      5-min Rain = 0
KVA1 251747Z 07009KT 22/M07 A3027 RMK A01 T02191068  RH  014%=      5-min Rain = 0
KVA1 251748Z 07008KT 22/M07 A3027 RMK A01 T02221069  RH  014%=      5-min Rain = 0
KVA1 251749Z 05010KT 22/M07 A3027 RMK A01 T02211071  RH  014%=      5-min Rain = 0
KVA1 251750Z 04011KT 22/M07 A3027 RMK A01 T02211069  RH  014%=      5-min Rain = 0
KVA1 251751Z 04008KT 22/M07 A3027 RMK A01 T02211071  RH  014%=      5-min Rain = 0
KVA1 251752Z 05010KT 22/M07 A3027 RMK A01 T02211069  RH  014%=      5-min Rain = 0
KVA1 251753Z 06009KT 22/M07 A3027 RMK A01 T02241067  RH  014%=      5-min Rain = 0
KVA1 251754Z 06009KT 23/M07 A3027 RMK A01 T02261066  RH  014%=      5-min Rain = 0
KVA1 251755Z 05010KT 23/M07 A3027 RMK A01 T02271065  RH  014%=      5-min Rain = 0
KVA1 251756Z 03009KT 23/M07 A3027 RMK A01 T02261066  RH  014%=      5-min Rain = 0
KVA1 251757Z 02005KT 22/M07 A3027 RMK A01 T02221068  RH  014%=      5-min Rain = 0
KVA1 251758Z 07003KT 22/M07 A3027 RMK A01 T02201066  RH  014%=      5-min Rain = 0
KVA1 251759Z 06003KT 22/M07 A3027 RMK A01 T02211066  RH  014%=      5-min Rain = 0
KVA1 251800Z 08007KT 22/M07 A3027 RMK A01 T02201066  RH  014%=      5-min Rain = 0
KVA1 251801Z 08006KT 22/M07 A3027 RMK A01 T02211065  RH  014%=      5-min Rain = 0
KVA1 251802Z 09006KT 22/M07 A3027 RMK A01 T02211065  RH  014%=      5-min Rain = 0
KVA1 251803Z 05006KT 22/M07 A3027 RMK A01 T02211065  RH  014%=      5-min Rain = 0
KVA1 251804Z 06008KT 22/M07 A3027 RMK A01 T02211065  RH  014%=      5-min Rain = 0
KVA1 251805Z 06009KT 22/M07 A3027 RMK A01 T02241065  RH  014%=      5-min Rain = 0
KVA1 251806Z 07008KT 23/M06 A3027 RMK A01 T02251064  RH  014%=      5-min Rain = 0
KVA1 251807Z 08008KT 22/M07 A3027 RMK A01 T02241066  RH  014%=      5-min Rain = 0
KVA1 251808Z 06007KT 22/M06 A3027 RMK A01 T02231064  RH  014%=      5-min Rain = 0
KVA1 251809Z 02008KT 22/M06 A3027 RMK A01 T02241063  RH  014%=      5-min Rain = 0
KVA1 251810Z 02009KT 23/M06 A3027 RMK A01 T02261063  RH  014%=      5-min Rain = 0
KVA1 251811Z 02010KT 23/M06 A3027 RMK A01 T02261064  RH  014%=      5-min Rain = 0
KVA1 251812Z 03010KT 23/M06 A3027 RMK A01 T02281061  RH  014%=      5-min Rain = 0
KVA1 251813Z 06011KT 23/M06 A3027 RMK A01 T02321062  RH  014%=      5-min Rain = 0
KVA1 251814Z 07011KT 23/M06 A3027 RMK A01 T02321062  RH  014%=      5-min Rain = 0
KVA1 251815Z 07011KT 23/M06 A3027 RMK A01 T02321061  RH  014%=      5-min Rain = 0
KVA1 251816Z 05008KT 23/M06 A3027 RMK A01 T02301064  RH  014%=      5-min Rain = 0
KVA1 251817Z 05012KT 23/M06 A3026 RMK A01 T02281063  RH  014%=      5-min Rain = 0
KVA1 251818Z 05012KT 23/M06 A3026 RMK A01 T02271064  RH  014%=      5-min Rain = 0
KVA1 251819Z 06009KT 23/M07 A3026 RMK A01 T02251065  RH  014%=      5-min Rain = 0
KVA1 251820Z 06008KT 23/M06 A3026 RMK A01 T02251064  RH  014%=      5-min Rain = 0
KVA1 251821Z 06011KT 23/M07 A3026 RMK A01 T02251065  RH  014%=      5-min Rain = 0
KVA1 251822Z 06009KT 23/M06 A3026 RMK A01 T02251064  RH  014%=      5-min Rain = 0
KVA1 251823Z 09007KT 23/M06 A3026 RMK A01 T02251064  RH  014%=      5-min Rain = 0
KVA1 251824Z 08007KT 23/M06 A3026 RMK A01 T02251062  RH  014%=      5-min Rain = 0
KVA1 251825Z 04010KT 23/M06 A3026 RMK A01 T02251062  RH  014%=      5-min Rain = 0
KVA1 251826Z 04010KT 23/M06 A3026 RMK A01 T02251063  RH  014%=      5-min Rain = 0
KVA1 251827Z 06010KT 23/M06 A3026 RMK A01 T02261064  RH  014%=      5-min Rain = 0
KVA1 251828Z 08011KT 23/M06 A3026 RMK A01 T02271064  RH  014%=      5-min Rain = 0
KVA1 251829Z 08008KT 23/M07 A3026 RMK A01 T02281066  RH  013%=      5-min Rain = 0
KVA1 251830Z 11007KT 23/M07 A3026 RMK A01 T02271066  RH  013%=      5-min Rain = 0
KVA1 251831Z 11008KT 23/M07 A3026 RMK A01 T02261067  RH  013%=      5-min Rain = 0
KVA1 251832Z 08012G25KT 23/M07 A3026 RMK A01 T02271065  RH  014%=      5-min Rain = 0
KVA1 251833Z 08013G18KT 23/M06 A3026 RMK A01 T02321063  RH  013%=      5-min Rain = 0
KVA1 251834Z 07013KT 24/M07 A3026 RMK A01 T02361065  RH  013%=      5-min Rain = 0
KVA1 251835Z 07013KT 24/M07 A3026 RMK A01 T02361067  RH  013%=      5-min Rain = 0
KVA1 251836Z 07010KT 23/M07 A3026 RMK A01 T02331068  RH  013%=      5-min Rain = 0
KVA1 251837Z 09008KT 23/M07 A3026 RMK A01 T02311067  RH  013%=      5-min Rain = 0
KVA1 251838Z 09007KT 23/M07 A3026 RMK A01 T02291066  RH  013%=      5-min Rain = 0
KVA1 251839Z 07006KT 23/M07 A3025 RMK A01 T02281066  RH  013%=      5-min Rain = 0
KVA1 251840Z 07011G19KT 23/M06 A3025 RMK A01 T02281064  RH  014%=      5-min Rain = 0
KVA1 251841Z 05012KT 23/M07 A3026 RMK A01 T02321067  RH  013%=      5-min Rain = 0
KVA1 251842Z 04010KT 23/M07 A3025 RMK A01 T02331068  RH  013%=      5-min Rain = 0
KVA1 251843Z 03008KT 23/M07 A3025 RMK A01 T02331069  RH  013%=      5-min Rain = 0
KVA1 251844Z 08009G15KT 24/M07 A3025 RMK A01 T02351067  RH  013%=      5-min Rain = 0
KVA1 251845Z 08013KT 24/M07 A3025 RMK A01 T02401066  RH  013%=      5-min Rain = 0
KVA1 251846Z 07012KT 24/M07 A3025 RMK A01 T02391070  RH  012%=      5-min Rain = 0
KVA1 251847Z 08009G15KT 23/M07 A3025 RMK A01 T02331072  RH  012%=      5-min Rain = 0
KVA1 251848Z 07006KT 23/M07 A3025 RMK A01 T02301072  RH  013%=      5-min Rain = 0
KVA1 251849Z 06013G19KT 23/M07 A3025 RMK A01 T02311068  RH  013%=      5-min Rain = 0
KVA1 251850Z 07015KT 24/M07 A3025 RMK A01 T02361068  RH  013%=      5-min Rain = 0
KVA1 251851Z 07011KT 24/M07 A3025 RMK A01 T02371068  RH  013%=      5-min Rain = 0
KVA1 251852Z 06011KT 24/M07 A3025 RMK A01 T02381065  RH  013%=      5-min Rain = 0
KVA1 251853Z 06008KT 24/M07 A3025 RMK A01 T02411069  RH  012%=      5-min Rain = 0
KVA1 251854Z 06009KT 24/M07 A3025 RMK A01 T02361070  RH  012%=      5-min Rain = 0
KVA1 251855Z 04013KT 23/M07 A3025 RMK A01 T02341070  RH  013%=      5-min Rain = 0
KVA1 251856Z 08014KT 24/M07 A3025 RMK A01 T02361067  RH  013%=      5-min Rain = 0
KVA1 251857Z 08011G16KT 24/M06 A3025 RMK A01 T02371064  RH  013%=      5-min Rain = 0
KVA1 251858Z 07009KT 23/M06 A3025 RMK A01 T02341064  RH  013%=      5-min Rain = 0
KVA1 251859Z 08009KT 23/M06 A3025 RMK A01 T02331063  RH  013%=      5-min Rain = 0
KVA1 251900Z 09009KT 24/M06 A3025 RMK A01 T02351063  RH  013%=      5-min Rain = 0
KVA1 251901Z 09011KT 24/M06 A3025 RMK A01 T02351064  RH  013%=      5-min Rain = 0
KVA1 251902Z 09011KT 23/M06 A3025 RMK A01 T02341062  RH  013%=      5-min Rain = 0
KVA1 251903Z 08014KT 24/M06 A3025 RMK A01 T02351060  RH  014%=      5-min Rain = 0
KVA1 251904Z 07009KT 24/M06 A3025 RMK A01 T02371059  RH  013%=      5-min Rain = 0
KVA1 251905Z 10007KT 24/M06 A3024 RMK A01 T02391058  RH  013%=      5-min Rain = 0
KVA1 251906Z 07013G18KT 24/M06 A3025 RMK A01 T02401059  RH  013%=      5-min Rain = 0
KVA1 251907Z 07010KT 24/M06 A3025 RMK A01 T02421058  RH  013%=      5-min Rain = 0
KVA1 251908Z 05010KT 24/M06 A3025 RMK A01 T02411058  RH  013%=      5-min Rain = 0
KVA1 251909Z 07009KT 24/M06 A3024 RMK A01 T02381060  RH  013%=      5-min Rain = 0
KVA1 251910Z 07009KT 24/M06 A3024 RMK A01 T02381058  RH  014%=      5-min Rain = 0
KVA1 251911Z 06013KT 24/M06 A3024 RMK A01 T02421058  RH  013%=      5-min Rain = 0
KVA1 251912Z 07015KT 24/M06 A3024 RMK A01 T02431059  RH  013%=      5-min Rain = 0
KVA1 251913Z 06013KT 24/M06 A3024 RMK A01 T02411060  RH  013%=      5-min Rain = 0
KVA1 251914Z 06011KT 24/M06 A3024 RMK A01 T02401060  RH  013%=      5-min Rain = 0
KVA1 251915Z 05011KT 24/M06 A3024 RMK A01 T02401063  RH  013%=      5-min Rain = 0
KVA1 251916Z 06012KT 24/M07 A3024 RMK A01 T02401067  RH  012%=      5-min Rain = 0
KVA1 251917Z 05010KT 24/M07 A3024 RMK A01 T02391066  RH  013%=      5-min Rain = 0
KVA1 251918Z 06008KT 24/M07 A3024 RMK A01 T02361067  RH  013%=      5-min Rain = 0
KVA1 251919Z 05008KT 24/M06 A3024 RMK A01 T02351063  RH  013%=      5-min Rain = 0
KVA1 251920Z 07010KT 24/M06 A3024 RMK A01 T02361061  RH  013%=      5-min Rain = 0
KVA1 251921Z 09012KT 24/M06 A3024 RMK A01 T02371059  RH  013%=      5-min Rain = 0
KVA1 251922Z 09009KT 24/M06 A3024 RMK A01 T02391058  RH  013%=      5-min Rain = 0
KVA1 251923Z 09013KT 24/M06 A3024 RMK A01 T02431057  RH  013%=      5-min Rain = 0
KVA1 251924Z 08013KT 25/M06 A3024 RMK A01 T02461058  RH  013%=      5-min Rain = 0
KVA1 251925Z 07008KT 24/M06 A3024 RMK A01 T02431059  RH  013%=      5-min Rain = 0
KVA1 251926Z 09007KT 24/M06 A3024 RMK A01 T02401056  RH  013%=      5-min Rain = 0
KVA1 251927Z 11008KT 24/M06 A3024 RMK A01 T02401056  RH  013%=      5-min Rain = 0
KVA1 251928Z 11009KT 24/M06 A3024 RMK A01 T02421057  RH  013%=      5-min Rain = 0
KVA1 251929Z 09009G14KT 24/M06 A3024 RMK A01 T02411060  RH  013%=      5-min Rain = 0
KVA1 251930Z 08011KT 24/M06 A3024 RMK A01 T02401060  RH  013%=      5-min Rain = 0
KVA1 251931Z 07009KT 24/M06 A3024 RMK A01 T02391060  RH  013%=      5-min Rain = 0
KVA1 251932Z 04010KT 24/M06 A3024 RMK A01 T02401059  RH  013%=      5-min Rain = 0
KVA1 251933Z 05008KT 24/M06 A3024 RMK A01 T02421059  RH  013%=      5-min Rain = 0
KVA1 251934Z 06013G19KT 24/M06 A3024 RMK A01 T02441060  RH  013%=      5-min Rain = 0
KVA1 251935Z 07015KT 24/M06 A3024 RMK A01 T02431062  RH  013%=      5-min Rain = 0
KVA1 251936Z 07012KT 24/M06 A3024 RMK A01 T02391064  RH  013%=      5-min Rain = 0
KVA1 251937Z 07011KT 24/M06 A3023 RMK A01 T02351064  RH  013%=      5-min Rain = 0
KVA1 251938Z 06012KT 24/M06 A3023 RMK A01 T02371062  RH  013%=      5-min Rain = 0
KVA1 251939Z 07012G17KT 24/M06 A3023 RMK A01 T02381062  RH  013%=      5-min Rain = 0
KVA1 251940Z 06015KT 24/M06 A3023 RMK A01 T02381062  RH  013%=      5-min Rain = 0
KVA1 251941Z 07010KT 24/M06 A3023 RMK A01 T02381062  RH  013%=      5-min Rain = 0
KVA1 251942Z 10011KT 24/M06 A3023 RMK A01 T02391057  RH  013%=      5-min Rain = 0
KVA1 251943Z 12010KT 24/M06 A3023 RMK A01 T02441058  RH  013%=      5-min Rain = 0
KVA1 251944Z 09007KT 24/M06 A3023 RMK A01 T02441060  RH  013%=      5-min Rain = 0
KVA1 251945Z 06008KT 24/M06 A3023 RMK A01 T02441061  RH  013%=      5-min Rain = 0
KVA1 251946Z 05010KT 25/M06 A3023 RMK A01 T02451063  RH  012%=      5-min Rain = 0
KVA1 251947Z 06010KT 24/M07 A3023 RMK A01 T02441065  RH  012%=      5-min Rain = 0
KVA1 251948Z 05007KT 24/M07 A3023 RMK A01 T02421065  RH  012%=      5-min Rain = 0
KVA1 251949Z 06005KT 24/M06 A3023 RMK A01 T02421063  RH  013%=      5-min Rain = 0
KVA1 251950Z 04008KT 24/M06 A3023 RMK A01 T02431063  RH  013%=      5-min Rain = 0
KVA1 251951Z 05011KT 24/M06 A3023 RMK A01 T02401060  RH  013%=      5-min Rain = 0
KVA1 251952Z 05012KT 24/M06 A3023 RMK A01 T02431058  RH  013%=      5-min Rain = 0
KVA1 251953Z 04014KT 24/M06 A3023 RMK A01 T02431061  RH  013%=      5-min Rain = 0
KVA1 251954Z 06012KT 24/M06 A3023 RMK A01 T02411062  RH  013%=      5-min Rain = 0
KVA1 251955Z 07009KT 24/M06 A3023 RMK A01 T02401063  RH  013%=      5-min Rain = 0
KVA1 251956Z 08008KT 24/M06 A3023 RMK A01 T02421060  RH  013%=      5-min Rain = 0
KVA1 251957Z 06009KT 25/M06 A3023 RMK A01 T02451061  RH  013%=      5-min Rain = 0
KVA1 251958Z 07009KT 25/M07 A3022 RMK A01 T02461066  RH  012%=      5-min Rain = 0
KVA1 251959Z 04011KT 25/M07 A3022 RMK A01 T02461067  RH  012%=      5-min Rain = 0
KVA1 252000Z 05010KT 24/M07 A3022 RMK A01 T02441065  RH  012%=      5-min Rain = 0
KVA1 252001Z 03006KT 24/M06 A3022 RMK A01 T02441060  RH  013%=      5-min Rain = 0
KVA1 252002Z 05010KT 24/M06 A3022 RMK A01 T02411058  RH  013%=      5-min Rain = 0
KVA1 252003Z 05012G18KT 24/M06 A3022 RMK A01 T02421057  RH  013%=      5-min Rain = 0
KVA1 252004Z 03013KT 24/M06 A3022 RMK A01 T02431056  RH  013%=      5-min Rain = 0
KVA1 252005Z 04013KT 24/M06 A3022 RMK A01 T02431056  RH  013%=      5-min Rain = 0
KVA1 252006Z 04012KT 25/M06 A3022 RMK A01 T02451055  RH  013%=      5-min Rain = 0
KVA1 252007Z 03008G13KT 25/M06 A3022 RMK A01 T02461057  RH  013%=      5-min Rain = 0
KVA1 252008Z 04009KT 24/M06 A3022 RMK A01 T02431056  RH  013%=      5-min Rain = 0
KVA1 252009Z 05012KT 24/M06 A3022 RMK A01 T02421055  RH  013%=      5-min Rain = 0
KVA1 252010Z 07012KT 25/M06 A3022 RMK A01 T02461055  RH  013%=      5-min Rain = 0
KVA1 252011Z 06010KT 25/M06 A3022 RMK A01 T02471057  RH  013%=      5-min Rain = 0
KVA1 252012Z 08013KT 25/M06 A3022 RMK A01 T02461056  RH  013%=      5-min Rain = 0
KVA1 252013Z 08013KT 25/M05 A3022 RMK A01 T02481054  RH  013%=      5-min Rain = 0
KVA1 252014Z 08008KT 25/M06 A3022 RMK A01 T02451057  RH  013%=      5-min Rain = 0
KVA1 252015Z 08006KT 24/M06 A3022 RMK A01 T02441056  RH  013%=      5-min Rain = 0
KVA1 252016Z 07007KT 24/M06 A3022 RMK A01 T02441055  RH  013%=      5-min Rain = 0
KVA1 252017Z 08011KT 25/M05 A3022 RMK A01 T02451054  RH  013%=      5-min Rain = 0
KVA1 252018Z 07011KT 25/M06 A3022 RMK A01 T02471055  RH  013%=      5-min Rain = 0
KVA1 252019Z 07009KT 25/M06 A3022 RMK A01 T02451057  RH  013%=      5-min Rain = 0
KVA1 252020Z 06010KT 24/M06 A3022 RMK A01 T02441057  RH  013%=      5-min Rain = 0
KVA1 252021Z 07009KT 24/M06 A3022 RMK A01 T02431058  RH  013%=      5-min Rain = 0
KVA1 252022Z 08009G16KT 24/M05 A3021 RMK A01 T02431054  RH  014%=      5-min Rain = 0
KVA1 252023Z 07014KT 24/M05 A3021 RMK A01 T02441052  RH  014%=      5-min Rain = 0
KVA1 252024Z 06014KT 25/M05 A3021 RMK A01 T02451053  RH  013%=      5-min Rain = 0
KVA1 252025Z 05008KT 24/M05 A3021 RMK A01 T02431054  RH  013%=      5-min Rain = 0
KVA1 252026Z 10012KT 25/M05 A3021 RMK A01 T02461051  RH  014%=      5-min Rain = 0
KVA1 252027Z 10014KT 25/M05 A3021 RMK A01 T02481053  RH  013%=      5-min Rain = 0
KVA1 252028Z 08012KT 25/M05 A3021 RMK A01 T02471053  RH  013%=      5-min Rain = 0
KVA1 252029Z 08007KT 25/M05 A3021 RMK A01 T02451053  RH  013%=      5-min Rain = 0
KVA1 252030Z 06007KT 24/M05 A3021 RMK A01 T02421052  RH  014%=      5-min Rain = 0
KVA1 252031Z 07006KT 24/M05 A3021 RMK A01 T02421054  RH  014%=      5-min Rain = 0
KVA1 252032Z 06003KT 24/M06 A3021 RMK A01 T02391055  RH  014%=      5-min Rain = 0
KVA1 252033Z 06003KT 24/M06 A3021 RMK A01 T02391055  RH  014%=      5-min Rain = 0
KVA1 252034Z 06005G10KT 24/M06 A3021 RMK A01 T02391055  RH  014%=      5-min Rain = 0
KVA1 252035Z 06007KT 24/M06 A3021 RMK A01 T02411055  RH  014%=      5-min Rain = 0
KVA1 252036Z 06013KT 24/M06 A3021 RMK A01 T02431057  RH  013%=      5-min Rain = 0
KVA1 252037Z 06012KT 24/M06 A3021 RMK A01 T02421059  RH  013%=      5-min Rain = 0
KVA1 252038Z 06012KT 24/M06 A3021 RMK A01 T02421057  RH  013%=      5-min Rain = 0
KVA1 252039Z 07011KT 24/M06 A3021 RMK A01 T02431055  RH  013%=      5-min Rain = 0
KVA1 252040Z 05011KT 24/M06 A3021 RMK A01 T02441055  RH  013%=      5-min Rain = 0
KVA1 252041Z 04011KT 25/M06 A3021 RMK A01 T02461056  RH  013%=      5-min Rain = 0
KVA1 252042Z 05007KT 25/M05 A3021 RMK A01 T02461053  RH  013%=      5-min Rain = 0
KVA1 252043Z 03008KT 25/M05 A3021 RMK A01 T02451053  RH  013%=      5-min Rain = 0
KVA1 252044Z 05008KT 25/M05 A3021 RMK A01 T02471054  RH  013%=      5-min Rain = 0
KVA1 252045Z 06005KT 25/M05 A3021 RMK A01 T02491052  RH  013%=      5-min Rain = 0
KVA1 252046Z 05011KT 25/M05 A3021 RMK A01 T02481052  RH  013%=      5-min Rain = 0
KVA1 252047Z 05010KT 25/M05 A3021 RMK A01 T02491053  RH  013%=      5-min Rain = 0
KVA1 252048Z 05007KT 25/M05 A3021 RMK A01 T02481052  RH  013%=      5-min Rain = 0
KVA1 252049Z 04006KT 25/M05 A3021 RMK A01 T02481052  RH  013%=      5-min Rain = 0
KVA1 252050Z 04006KT 25/M05 A302 RMK A01 T02471051  RH  013%=      5-min Rain = 0
KVA1 252051Z 06006KT 24/M05 A302 RMK A01 T02441053  RH  014%=      5-min Rain = 0
KVA1 252052Z 05013KT 24/M05 A302 RMK A01 T02431050  RH  014%=      5-min Rain = 0
KVA1 252053Z 06008KT 25/M05 A302 RMK A01 T02451049  RH  014%=      5-min Rain = 0
KVA1 252054Z 04007KT 25/M05 A302 RMK A01 T02451049  RH  014%=      5-min Rain = 0
KVA1 252055Z 05007KT 25/M05 A302 RMK A01 T02461049  RH  014%=      5-min Rain = 0
KVA1 252056Z 06008KT 25/M05 A302 RMK A01 T02451050  RH  014%=      5-min Rain = 0
KVA1 252057Z 04008G13KT 25/M05 A302 RMK A01 T02451048  RH  014%=      5-min Rain = 0
KVA1 252058Z 03010KT 25/M05 A302 RMK A01 T02481049  RH  014%=      5-min Rain = 0
KVA1 252059Z 04006G12KT 25/M05 A302 RMK A01 T02481051  RH  013%=      5-min Rain = 0
KVA1 252100Z 05013KT 25/M05 A302 RMK A01 T02471051  RH  013%=      5-min Rain = 0
KVA1 252101Z 05011KT 25/M05 A302 RMK A01 T02481051  RH  013%=      5-min Rain = 0
KVA1 252102Z 04010KT 25/M05 A302 RMK A01 T02491051  RH  013%=      5-min Rain = 0
KVA1 252103Z 04010KT 25/M05 A302 RMK A01 T02511051  RH  013%=      5-min Rain = 0
KVA1 252104Z 03009KT 25/M05 A302 RMK A01 T02531051  RH  013%=      5-min Rain = 0
KVA1 252105Z 03008KT 25/M05 A302 RMK A01 T02531053  RH  013%=      5-min Rain = 0
KVA1 252106Z 02008KT 25/M05 A302 RMK A01 T02541052  RH  013%=      5-min Rain = 0
KVA1 252107Z 01008G13KT 26/M05 A302 RMK A01 T02551051  RH  013%=      5-min Rain = 0
KVA1 252108Z 02012KT 26/M05 A302 RMK A01 T02551050  RH  013%=      5-min Rain = 0
KVA1 252109Z 02009KT 25/M05 A3019 RMK A01 T02531050  RH  013%=      5-min Rain = 0
KVA1 252110Z 03011KT 25/M05 A3019 RMK A01 T02521047  RH  013%=      5-min Rain = 0
KVA1 252111Z 02010KT 25/M05 A3019 RMK A01 T02521046  RH  014%=      5-min Rain = 0
KVA1 252112Z 03013KT 25/M05 A3019 RMK A01 T02491048  RH  014%=      5-min Rain = 0
KVA1 252113Z 07013KT 25/M05 A3019 RMK A01 T02491047  RH  014%=      5-min Rain = 0
KVA1 252114Z 07012KT 25/M04 A3019 RMK A01 T02511044  RH  014%=      5-min Rain = 0
KVA1 252115Z 07013KT 25/M04 A3019 RMK A01 T02531044  RH  014%=      5-min Rain = 0
KVA1 252116Z 09010KT 25/M05 A3019 RMK A01 T02501046  RH  014%=      5-min Rain = 0
KVA1 252117Z 07009KT 25/M05 A3019 RMK A01 T02471045  RH  014%=      5-min Rain = 0
KVA1 252118Z 08005KT 25/M05 A3019 RMK A01 T02461047  RH  014%=      5-min Rain = 0
KVA1 252119Z 08009KT 24/M05 A3019 RMK A01 T02441045  RH  014%=      5-min Rain = 0
KVA1 252120Z 09008KT 25/M04 A3019 RMK A01 T02471044  RH  014%=      5-min Rain = 0
KVA1 252121Z 09009KT 25/M05 A3019 RMK A01 T02481046  RH  014%=      5-min Rain = 0
KVA1 252122Z 08010KT 25/M05 A3019 RMK A01 T02491050  RH  013%=      5-min Rain = 0
KVA1 252123Z 10009KT 25/M06 A3019 RMK A01 T02511055  RH  013%=      5-min Rain = 0
KVA1 252124Z 11008KT 25/M06 A3019 RMK A01 T02521055  RH  013%=      5-min Rain = 0
KVA1 252125Z 10006KT 25/M06 A3019 RMK A01 T02491056  RH  013%=      5-min Rain = 0
KVA1 252126Z 09005KT 25/M05 A3019 RMK A01 T02471053  RH  013%=      5-min Rain = 0
KVA1 252127Z 08008KT 25/M05 A3019 RMK A01 T02471048  RH  014%=      5-min Rain = 0
KVA1 252128Z 10007KT 25/M04 A3019 RMK A01 T02491043  RH  014%=      5-min Rain = 0
KVA1 252129Z 09008KT 25/M04 A3018 RMK A01 T02501044  RH  014%=      5-min Rain = 0
KVA1 252130Z 08011G17KT 25/M04 A3018 RMK A01 T02521039  RH  014%=      5-min Rain = 0
KVA1 252131Z 06013KT 26/M04 A3018 RMK A01 T02561039  RH  014%=      5-min Rain = 0
KVA1 252132Z 07009KT 26/M04 A3018 RMK A01 T02561041  RH  014%=      5-min Rain = 0
KVA1 252133Z 06010KT 26/M04 A3018 RMK A01 T02561041  RH  014%=      5-min Rain = 0
KVA1 252134Z 05013KT 26/M04 A3018 RMK A01 T02551041  RH  014%=      5-min Rain = 0
KVA1 252135Z 04008KT 25/M04 A3018 RMK A01 T02521043  RH  014%=      5-min Rain = 0
KVA1 252136Z 04007G13KT 25/M04 A3018 RMK A01 T02511042  RH  014%=      5-min Rain = 0
KVA1 252137Z 04010KT 25/M04 A3018 RMK A01 T02531043  RH  014%=      5-min Rain = 0
KVA1 252138Z 04012KT 25/M05 A3018 RMK A01 T02511045  RH  014%=      5-min Rain = 0
KVA1 252139Z 04010KT 25/M05 A3018 RMK A01 T02491046  RH  014%=      5-min Rain = 0
KVA1 252140Z 03010KT 25/M05 A3018 RMK A01 T02471047  RH  014%=      5-min Rain = 0
KVA1 252141Z 02008KT 25/M05 A3018 RMK A01 T02481046  RH  014%=      5-min Rain = 0
KVA1 252142Z 04009KT 25/M04 A3018 RMK A01 T02511044  RH  014%=      5-min Rain = 0
KVA1 252143Z 04011KT 25/M04 A3018 RMK A01 T02521044  RH  014%=      5-min Rain = 0
KVA1 252144Z 06010KT 25/M04 A3018 RMK A01 T02521044  RH  014%=      5-min Rain = 0
KVA1 252145Z 06007KT 25/M04 A3018 RMK A01 T02521044  RH  014%=      5-min Rain = 0
KVA1 252146Z 05008KT 25/M04 A3018 RMK A01 T02531044  RH  014%=      5-min Rain = 0
KVA1 252147Z 06009KT 25/M05 A3018 RMK A01 T02531047  RH  013%=      5-min Rain = 0
KVA1 252148Z 05007KT 25/M05 A3018 RMK A01 T02501048  RH  014%=      5-min Rain = 0
KVA1 252149Z 06007KT 25/M05 A3018 RMK A01 T02471047  RH  014%=      5-min Rain = 0
KVA1 252150Z 06005KT 25/M05 A3018 RMK A01 T02451045  RH  014%=      5-min Rain = 0
KVA1 252151Z 07005KT 25/M04 A3018 RMK A01 T02451044  RH  014%=      5-min Rain = 0
KVA1 252152Z 10007KT 25/M05 A3018 RMK A01 T02471045  RH  014%=      5-min Rain = 0
KVA1 252153Z 07009G14KT 25/M05 A3018 RMK A01 T02481046  RH  014%=      5-min Rain = 0
KVA1 252154Z 07008KT 25/M05 A3018 RMK A01 T02471045  RH  014%=      5-min Rain = 0
KVA1 252155Z 05012KT 25/M04 A3018 RMK A01 T02461042  RH  014%=      5-min Rain = 0
KVA1 252156Z 04010KT 25/M04 A3018 RMK A01 T02461041  RH  015%=      5-min Rain = 0
KVA1 252157Z 03010KT 24/M04 A3018 RMK A01 T02441040  RH  015%=      5-min Rain = 0
KVA1 252158Z 04009KT 24/M04 A3018 RMK A01 T02431041  RH  015%=      5-min Rain = 0
KVA1 252159Z 02005KT 24/M04 A3018 RMK A01 T02421041  RH  015%=      5-min Rain = 0
KVA1 252200Z 03005KT 24/M04 A3018 RMK A01 T02431041  RH  015%=      5-min Rain = 0
KVA1 252201Z 05008KT 25/M04 A3018 RMK A01 T02451040  RH  015%=      5-min Rain = 0
KVA1 252202Z 08008KT 25/M04 A3018 RMK A01 T02471039  RH  015%=      5-min Rain = 0
KVA1 252203Z 07011KT 25/M04 A3018 RMK A01 T02511038  RH  015%=      5-min Rain = 0
KVA1 252204Z 06013KT 25/M04 A3018 RMK A01 T02541036  RH  014%=      5-min Rain = 0
KVA1 252205Z 06012KT 25/M04 A3018 RMK A01 T02541038  RH  014%=      5-min Rain = 0
KVA1 252206Z 05012KT 25/M04 A3018 RMK A01 T02531037  RH  014%=      5-min Rain = 0
KVA1 252207Z 08011KT 25/M04 A3018 RMK A01 T02521038  RH  014%=      5-min Rain = 0
KVA1 252208Z 08011KT 25/M04 A3018 RMK A01 T02521038  RH  014%=      5-min Rain = 0
KVA1 252209Z 08008KT 25/M04 A3018 RMK A01 T02521039  RH  014%=      5-min Rain = 0
KVA1 252210Z 08007KT 25/M04 A3018 RMK A01 T02531038  RH  014%=      5-min Rain = 0
KVA1 252211Z 09007KT 25/M04 A3017 RMK A01 T02531038  RH  014%=      5-min Rain = 0
KVA1 252212Z 10009KT 26/M04 A3018 RMK A01 T02551037  RH  014%=      5-min Rain = 0
KVA1 252213Z 08007KT 25/M04 A3018 RMK A01 T02531040  RH  014%=      5-min Rain = 0
KVA1 252214Z 08011KT 25/M04 A3018 RMK A01 T02521038  RH  014%=      5-min Rain = 0
KVA1 252215Z 09009KT 25/M04 A3018 RMK A01 T02531038  RH  014%=      5-min Rain = 0
KVA1 252216Z 10010KT 25/M04 A3017 RMK A01 T02531038  RH  014%=      5-min Rain = 0
KVA1 252217Z 06010KT 25/M04 A3017 RMK A01 T02531038  RH  014%=      5-min Rain = 0
KVA1 252218Z 05011KT 26/M04 A3017 RMK A01 T02551039  RH  014%=      5-min Rain = 0
KVA1 252219Z 05011KT 25/M04 A3017 RMK A01 T02521040  RH  014%=      5-min Rain = 0
KVA1 252220Z 06007KT 25/M04 A3018 RMK A01 T02511039  RH  014%=      5-min Rain = 0
KVA1 252221Z 08010G15KT 25/M04 A3017 RMK A01 T02501039  RH  014%=      5-min Rain = 0
KVA1 252222Z 09008KT 25/M04 A3018 RMK A01 T02501038  RH  015%=      5-min Rain = 0
KVA1 252223Z 07007G13KT 25/M04 A3017 RMK A01 T02491038  RH  015%=      5-min Rain = 0
KVA1 252224Z 08012KT 25/M04 A3017 RMK A01 T02491038  RH  015%=      5-min Rain = 0
KVA1 252225Z 11008KT 25/M04 A3018 RMK A01 T02511036  RH  015%=      5-min Rain = 0
KVA1 252226Z 10008KT 25/M04 A3018 RMK A01 T02531037  RH  014%=      5-min Rain = 0
KVA1 252227Z 06009KT 25/M04 A3018 RMK A01 T02531037  RH  014%=      5-min Rain = 0
KVA1 252228Z 05008KT 25/M04 A3017 RMK A01 T02511039  RH  014%=      5-min Rain = 0
KVA1 252229Z 04008KT 25/M04 A3017 RMK A01 T02511039  RH  014%=      5-min Rain = 0
KVA1 252230Z 03009KT 25/M04 A3017 RMK A01 T02511039  RH  014%=      5-min Rain = 0
KVA1 252231Z 06005KT 25/M04 A3017 RMK A01 T02501039  RH  014%=      5-min Rain = 0
KVA1 252232Z 10008G13KT 25/M04 A3017 RMK A01 T02501039  RH  014%=      5-min Rain = 0
KVA1 252233Z 10007KT 25/M04 A3017 RMK A01 T02491039  RH  014%=      5-min Rain = 0
KVA1 252234Z 08007KT 25/M04 A3017 RMK A01 T02521037  RH  015%=      5-min Rain = 0
KVA1 252235Z 08009G14KT 25/M04 A3017 RMK A01 T02541038  RH  014%=      5-min Rain = 0
KVA1 252236Z 06012KT 25/M04 A3017 RMK A01 T02541037  RH  014%=      5-min Rain = 0
KVA1 252237Z 06010KT 26/M04 A3017 RMK A01 T02561037  RH  014%=      5-min Rain = 0
KVA1 252238Z 04010KT 26/M04 A3017 RMK A01 T02561038  RH  014%=      5-min Rain = 0
KVA1 252239Z 08011KT 26/M04 A3017 RMK A01 T02551038  RH  014%=      5-min Rain = 0
KVA1 252240Z 07010KT 25/M04 A3018 RMK A01 T02541038  RH  014%=      5-min Rain = 0
KVA1 252241Z 08012G17KT 25/M04 A3018 RMK A01 T02531038  RH  014%=      5-min Rain = 0
KVA1 252242Z 08012KT 25/M04 A3018 RMK A01 T02541039  RH  014%=      5-min Rain = 0
KVA1 252243Z 09011KT 25/M04 A3018 RMK A01 T02531040  RH  014%=      5-min Rain = 0
KVA1 252244Z 06010G15KT 25/M04 A3018 RMK A01 T02501040  RH  014%=      5-min Rain = 0
KVA1 252245Z 08012G17KT 25/M04 A3018 RMK A01 T02491039  RH  014%=      5-min Rain = 0
KVA1 252246Z 06011KT 25/M04 A3018 RMK A01 T02501039  RH  014%=      5-min Rain = 0
KVA1 252247Z 06011KT 25/M04 A3018 RMK A01 T02491041  RH  014%=      5-min Rain = 0
KVA1 252248Z 08010KT 25/M04 A3018 RMK A01 T02481040  RH  015%=      5-min Rain = 0
KVA1 252249Z 08011KT 25/M04 A3018 RMK A01 T02501038  RH  015%=      5-min Rain = 0
KVA1 252250Z 08011KT 25/M04 A3018 RMK A01 T02511038  RH  015%=      5-min Rain = 0
KVA1 252251Z 09007KT 25/M04 A3018 RMK A01 T02511039  RH  014%=      5-min Rain = 0
KVA1 252252Z 05010KT 25/M04 A3018 RMK A01 T02501039  RH  014%=      5-min Rain = 0
KVA1 252253Z 04009KT 25/M04 A3018 RMK A01 T02501041  RH  014%=      5-min Rain = 0
KVA1 252254Z 03008KT 25/M04 A3017 RMK A01 T02501041  RH  014%=      5-min Rain = 0
KVA1 252255Z 05007KT 25/M04 A3017 RMK A01 T02491040  RH  014%=      5-min Rain = 0
KVA1 252256Z 04009G17KT 25/M04 A3017 RMK A01 T02481040  RH  015%=      5-min Rain = 0
KVA1 252257Z 08012KT 25/M04 A3017 RMK A01 T02511036  RH  015%=      5-min Rain = 0
KVA1 252258Z 08013G18KT 25/M04 A3017 RMK A01 T02511035  RH  015%=      5-min Rain = 0
KVA1 252259Z 08009KT 25/M03 A3017 RMK A01 T02521034  RH  015%=      5-min Rain = 0
KVA1 252300Z 07009G14KT 25/M04 A3017 RMK A01 T02511035  RH  015%=      5-min Rain = 0
KVA1 252301Z 06008KT 25/M03 A3017 RMK A01 T02511034  RH  015%=      5-min Rain = 0
KVA1 252302Z 06010KT 25/M04 A3017 RMK A01 T02511036  RH  015%=      5-min Rain = 0
KVA1 252303Z 07010KT 25/M04 A3017 RMK A01 T02491036  RH  015%=      5-min Rain = 0
KVA1 252304Z 07008KT 25/M04 A3017 RMK A01 T02501036  RH  015%=      5-min Rain = 0
KVA1 252305Z 08012G18KT 25/M04 A3017 RMK A01 T02491037  RH  015%=      5-min Rain = 0
KVA1 252306Z 08013KT 25/M04 A3017 RMK A01 T02501036  RH  015%=      5-min Rain = 0
KVA1 252307Z 07008KT 25/M04 A3017 RMK A01 T02501036  RH  015%=      5-min Rain = 0
KVA1 252308Z 08009KT 25/M04 A3017 RMK A01 T02511035  RH  015%=      5-min Rain = 0
KVA1 252309Z 05013KT 25/M03 A3017 RMK A01 T02531033  RH  015%=      5-min Rain = 0
KVA1 252310Z 05012KT 25/M03 A3017 RMK A01 T02531033  RH  015%=      5-min Rain = 0
KVA1 252311Z 05012KT 25/M03 A3017 RMK A01 T02521033  RH  015%=      5-min Rain = 0
KVA1 252312Z 05010KT 25/M03 A3017 RMK A01 T02501033  RH  015%=      5-min Rain = 0
KVA1 252313Z 05012KT 25/M03 A3017 RMK A01 T02501033  RH  015%=      5-min Rain = 0
KVA1 252314Z 07014KT 25/M03 A3017 RMK A01 T02501033  RH  015%=      5-min Rain = 0
KVA1 252315Z 05014G19KT 25/M03 A3017 RMK A01 T02471034  RH  015%=      5-min Rain = 0
KVA1 252316Z 04015KT 25/M03 A3017 RMK A01 T02471033  RH  015%=      5-min Rain = 0
KVA1 252317Z 04014KT 25/M03 A3017 RMK A01 T02461034  RH  015%=      5-min Rain = 0
KVA1 252318Z 05013KT 25/M03 A3017 RMK A01 T02461033  RH  016%=      5-min Rain = 0
KVA1 252319Z 06011KT 25/M03 A3017 RMK A01 T02451033  RH  016%=      5-min Rain = 0
KVA1 252320Z 05017KT 25/M03 A3017 RMK A01 T02471032  RH  016%=      5-min Rain = 0
KVA1 252321Z 05014KT 25/M03 A3017 RMK A01 T02461034  RH  015%=      5-min Rain = 0
KVA1 252322Z 06014KT 25/M03 A3017 RMK A01 T02451034  RH  016%=      5-min Rain = 0
KVA1 252323Z 05012KT 25/M03 A3017 RMK A01 T02451033  RH  016%=      5-min Rain = 0
KVA1 252324Z 05011KT 25/M03 A3017 RMK A01 T02451034  RH  015%=      5-min Rain = 0
KVA1 252325Z 03010KT 24/M03 A3017 RMK A01 T02441034  RH  016%=      5-min Rain = 0
KVA1 252326Z 05010KT 25/M03 A3017 RMK A01 T02451033  RH  016%=      5-min Rain = 0
KVA1 252327Z 05011KT 25/M03 A3017 RMK A01 T02461033  RH  015%=      5-min Rain = 0
KVA1 252328Z 05008KT 25/M03 A3017 RMK A01 T02461034  RH  015%=      5-min Rain = 0
KVA1 252329Z 05013KT 25/M03 A3017 RMK A01 T02471032  RH  016%=      5-min Rain = 0
KVA1 252330Z 04010KT 25/M03 A3017 RMK A01 T02481032  RH  015%=      5-min Rain = 0
KVA1 252331Z 05011KT 25/M03 A3017 RMK A01 T02471031  RH  016%=      5-min Rain = 0
KVA1 252332Z 03012KT 25/M03 A3017 RMK A01 T02471032  RH  016%=      5-min Rain = 0
KVA1 252333Z 03012KT 25/M03 A3017 RMK A01 T02451033  RH  016%=      5-min Rain = 0
KVA1 252334Z 07010G15KT 25/M03 A3017 RMK A01 T02461031  RH  016%=      5-min Rain = 0
KVA1 252335Z 07012G17KT 25/M03 A3017 RMK A01 T02481029  RH  016%=      5-min Rain = 0
KVA1 252336Z 08013KT 25/M03 A3017 RMK A01 T02471029  RH  016%=      5-min Rain = 0
KVA1 252337Z 06013KT 24/M03 A3017 RMK A01 T02441029  RH  016%=      5-min Rain = 0
KVA1 252338Z 06012KT 24/M03 A3017 RMK A01 T02431030  RH  016%=      5-min Rain = 0
KVA1 252339Z 07012KT 24/M03 A3017 RMK A01 T02421030  RH  016%=      5-min Rain = 0
KVA1 252340Z 07012KT 24/M03 A3017 RMK A01 T02421030  RH  016%=      5-min Rain = 0
KVA1 252341Z 07010KT 24/M03 A3017 RMK A01 T02431030  RH  016%=      5-min Rain = 0
KVA1 252342Z 07010KT 24/M03 A3017 RMK A01 T02431030  RH  016%=      5-min Rain = 0
KVA1 252343Z 05013KT 25/M03 A3017 RMK A01 T02451030  RH  016%=      5-min Rain = 0
KVA1 252344Z 05012KT 24/M03 A3017 RMK A01 T02431031  RH  016%=      5-min Rain = 0
KVA1 252345Z 05008KT 24/M03 A3017 RMK A01 T02421032  RH  016%=      5-min Rain = 0
KVA1 252346Z 05009KT 24/M03 A3017 RMK A01 T02411031  RH  016%=      5-min Rain = 0
KVA1 252347Z 05007KT 24/M03 A3017 RMK A01 T02411030  RH  016%=      5-min Rain = 0
KVA1 252348Z 05013KT 24/M03 A3017 RMK A01 T02401030  RH  016%=      5-min Rain = 0
KVA1 252349Z 06011KT 24/M03 A3017 RMK A01 T02391030  RH  016%=      5-min Rain = 0
KVA1 252350Z 07011KT 24/M03 A3017 RMK A01 T02391030  RH  017%=      5-min Rain = 0
KVA1 252351Z 06008KT 24/M03 A3017 RMK A01 T02381032  RH  016%=      5-min Rain = 0
KVA1 252352Z 07008KT 24/M03 A3017 RMK A01 T02371032  RH  017%=      5-min Rain = 0
KVA1 252353Z 07007KT 24/M03 A3017 RMK A01 T02361032  RH  017%=      5-min Rain = 0
KVA1 252354Z 07010KT 24/M03 A3017 RMK A01 T02371031  RH  017%=      5-min Rain = 0
KVA1 252355Z 06009KT 24/M03 A3018 RMK A01 T02371032  RH  017%=      5-min Rain = 0
KVA1 252356Z 05010KT 24/M03 A3018 RMK A01 T02371032  RH  017%=      5-min Rain = 0
KVA1 252357Z 05007KT 24/M03 A3018 RMK A01 T02371032  RH  017%=      5-min Rain = 0
KVA1 252358Z 06012KT 24/M03 A3018 RMK A01 T02361031  RH  017%=      5-min Rain = 0
KVA1 252359Z 06010KT 24/M03 A3018 RMK A01 T02361032  RH  017%=      5-min Rain = 0
KVA1 260000Z 06011KT 24/M03 A3018 RMK A01 T02361031  RH  017%=      5-min Rain = 0
KVA1 260001Z 05011KT 24/M03 A3018 RMK A01 T02371030  RH  017%=      5-min Rain = 0
KVA1 260002Z 06012G18KT 24/M03 A3017 RMK A01 T02371029  RH  017%=      5-min Rain = 0
KVA1 260003Z 06012KT 24/M03 A3018 RMK A01 T02381028  RH  017%=      5-min Rain = 0
KVA1 260004Z 06012KT 24/M03 A3018 RMK A01 T02381029  RH  017%=      5-min Rain = 0
KVA1 260005Z 06011KT 24/M03 A3018 RMK A01 T02371030  RH  017%=      5-min Rain = 0
KVA1 260006Z 08012KT 24/M03 A3018 RMK A01 T02371029  RH  017%=      5-min Rain = 0
KVA1 260007Z 08009KT 24/M03 A3018 RMK A01 T02361029  RH  017%=      5-min Rain = 0
KVA1 260008Z 08010KT 24/M03 A3018 RMK A01 T02351030  RH  017%=      5-min Rain = 0
KVA1 260009Z 08009KT 24/M03 A3018 RMK A01 T02351029  RH  017%=      5-min Rain = 0
KVA1 260010Z 08010KT 24/M03 A3018 RMK A01 T02351029  RH  017%=      5-min Rain = 0
KVA1 260011Z 08012KT 24/M03 A3018 RMK A01 T02351029  RH  017%=      5-min Rain = 0
KVA1 260012Z 08010KT 24/M03 A3018 RMK A01 T02351028  RH  017%=      5-min Rain = 0
KVA1 260013Z 08009KT 23/M03 A3018 RMK A01 T02341028  RH  017%=      5-min Rain = 0
KVA1 260014Z 08012KT 24/M03 A3018 RMK A01 T02351028  RH  017%=      5-min Rain = 0
KVA1 260015Z 08012KT 23/M03 A3018 RMK A01 T02341029  RH  017%=      5-min Rain = 0
KVA1 260016Z 08011KT 23/M03 A3018 RMK A01 T02341029  RH  017%=      5-min Rain = 0
KVA1 260017Z 08010KT 23/M03 A3018 RMK A01 T02331030  RH  017%=      5-min Rain = 0
KVA1 260018Z 08008KT 23/M03 A3018 RMK A01 T02321030  RH  017%=      5-min Rain = 0
KVA1 260019Z 08009KT 23/M03 A3018 RMK A01 T02331030  RH  017%=      5-min Rain = 0
KVA1 260020Z 08015KT 24/M03 A3018 RMK A01 T02351029  RH  017%=      5-min Rain = 0
KVA1 260021Z 08014KT 24/M03 A3018 RMK A01 T02351031  RH  017%=      5-min Rain = 0
KVA1 260022Z 08011KT 23/M03 A3018 RMK A01 T02331031  RH  017%=      5-min Rain = 0
KVA1 260023Z 07011KT 23/M03 A3018 RMK A01 T02331031  RH  017%=      5-min Rain = 0
KVA1 260024Z 08013G18KT 23/M03 A3018 RMK A01 T02331031  RH  017%=      5-min Rain = 0
KVA1 260025Z 09011KT 23/M03 A3018 RMK A01 T02331031  RH  017%=      5-min Rain = 0
KVA1 260026Z 09011KT 23/M03 A3018 RMK A01 T02321031  RH  017%=      5-min Rain = 0
KVA1 260027Z 08012KT 23/M03 A3018 RMK A01 T02321032  RH  017%=      5-min Rain = 0
KVA1 260028Z 08011KT 23/M03 A3018 RMK A01 T02321031  RH  017%=      5-min Rain = 0
KVA1 260029Z 08010KT 23/M03 A3018 RMK A01 T02321031  RH  017%=      5-min Rain = 0
KVA1 260030Z 08011KT 23/M03 A3018 RMK A01 T02311031  RH  017%=      5-min Rain = 0
KVA1 260031Z 08012KT 23/M03 A3018 RMK A01 T02311031  RH  017%=      5-min Rain = 0
KVA1 260032Z 08012KT 23/M03 A3018 RMK A01 T02311031  RH  017%=      5-min Rain = 0
KVA1 260033Z 08011KT 23/M03 A3018 RMK A01 T02311031  RH  017%=      5-min Rain = 0
KVA1 260034Z 08011KT 23/M03 A3018 RMK A01 T02301032  RH  017%=      5-min Rain = 0
KVA1 260035Z 07010KT 23/M03 A3018 RMK A01 T02301031  RH  017%=      5-min Rain = 0
KVA1 260036Z 08011KT 23/M03 A3018 RMK A01 T02301031  RH  017%=      5-min Rain = 0
KVA1 260037Z 08011KT 23/M03 A3018 RMK A01 T02301032  RH  017%=      5-min Rain = 0
KVA1 260038Z 08011KT 23/M03 A3018 RMK A01 T02301032  RH  017%=      5-min Rain = 0
KVA1 260039Z 08010G15KT 23/M03 A3018 RMK A01 T02301032  RH  017%=      5-min Rain = 0
KVA1 260040Z 08010KT 23/M03 A3018 RMK A01 T02301031  RH  017%=      5-min Rain = 0
KVA1 260041Z 09008KT 23/M03 A3018 RMK A01 T02301031  RH  017%=      5-min Rain = 0
KVA1 260042Z 08010KT 23/M03 A3019 RMK A01 T02291031  RH  017%=      5-min Rain = 0
KVA1 260043Z 08011KT 23/M03 A3018 RMK A01 T02291031  RH  017%=      5-min Rain = 0
KVA1 260044Z 09011KT 23/M03 A3018 RMK A01 T02291031  RH  017%=      5-min Rain = 0
KVA1 260045Z 08013KT 23/M03 A3018 RMK A01 T02291031  RH  017%=      5-min Rain = 0
KVA1 260046Z 08013KT 23/M03 A3018 RMK A01 T02281031  RH  018%=      5-min Rain = 0
KVA1 260047Z 08014KT 23/M03 A3018 RMK A01 T02271031  RH  018%=      5-min Rain = 0
KVA1 260048Z 08012KT 23/M03 A3018 RMK A01 T02261031  RH  018%=      5-min Rain = 0
KVA1 260049Z 09011KT 23/M03 A3019 RMK A01 T02261030  RH  018%=      5-min Rain = 0
KVA1 260050Z 08009KT 23/M03 A3019 RMK A01 T02251030  RH  018%=      5-min Rain = 0
KVA1 260051Z 08009KT 23/M03 A3019 RMK A01 T02251030  RH  018%=      5-min Rain = 0
KVA1 260052Z 08008KT 23/M03 A3019 RMK A01 T02251030  RH  018%=      5-min Rain = 0
KVA1 260053Z 08008KT 23/M03 A3019 RMK A01 T02251030  RH  018%=      5-min Rain = 0
KVA1 260054Z 08009KT 23/M03 A3019 RMK A01 T02251030  RH  018%=      5-min Rain = 0
KVA1 260055Z 07011KT 23/M03 A3019 RMK A01 T02251030  RH  018%=      5-min Rain = 0
KVA1 260056Z 07011KT 23/M03 A3019 RMK A01 T02261030  RH  018%=      5-min Rain = 0
KVA1 260057Z 07011KT 23/M03 A3019 RMK A01 T02261029  RH  018%=      5-min Rain = 0
KVA1 260058Z 08011KT 23/M03 A3019 RMK A01 T02251029  RH  018%=      5-min Rain = 0
KVA1 260059Z 07010KT 23/M03 A3019 RMK A01 T02251029  RH  018%=      5-min Rain = 0
KVA1 260100Z 07011KT 22/M03 A3019 RMK A01 T02241029  RH  018%=      5-min Rain = 0
KVA1 260101Z 07010KT 22/M03 A3019 RMK A01 T02241029  RH  018%=      5-min Rain = 0
KVA1 260102Z 07011KT 22/M03 A3019 RMK A01 T02241029  RH  018%=      5-min Rain = 0
KVA1 260103Z 07010KT 22/M03 A3019 RMK A01 T02231029  RH  018%=      5-min Rain = 0
KVA1 260104Z 07012KT 22/M03 A3019 RMK A01 T02221028  RH  019%=      5-min Rain = 0
KVA1 260105Z 08014KT 22/M03 A3019 RMK A01 T02221027  RH  019%=      5-min Rain = 0
KVA1 260106Z 07012KT 22/M03 A3019 RMK A01 T02211026  RH  019%=      5-min Rain = 0
KVA1 260107Z 07012KT 22/M03 A3019 RMK A01 T02201026  RH  019%=      5-min Rain = 0
KVA1 260108Z 07010KT 22/M03 A3019 RMK A01 T02201025  RH  019%=      5-min Rain = 0
KVA1 260109Z 06012KT 22/M03 A3019 RMK A01 T02201025  RH  019%=      5-min Rain = 0
KVA1 260110Z 06010KT 22/M03 A3019 RMK A01 T02201025  RH  019%=      5-min Rain = 0
KVA1 260111Z 06010KT 22/M02 A3019 RMK A01 T02201024  RH  019%=      5-min Rain = 0
KVA1 260112Z 06013KT 22/M02 A3019 RMK A01 T02191024  RH  019%=      5-min Rain = 0
KVA1 260113Z 07009KT 22/M02 A3019 RMK A01 T02191024  RH  020%=      5-min Rain = 0
KVA1 260114Z 07010KT 22/M02 A3019 RMK A01 T02181024  RH  020%=      5-min Rain = 0
KVA1 260115Z 07009KT 22/M02 A3019 RMK A01 T02181024  RH  020%=      5-min Rain = 0
KVA1 260116Z 07010KT 22/M02 A3019 RMK A01 T02171023  RH  020%=      5-min Rain = 0
KVA1 260117Z 07011KT 22/M02 A3019 RMK A01 T02171022  RH  020%=      5-min Rain = 0
KVA1 260118Z 07010KT 22/M02 A3019 RMK A01 T02171022  RH  020%=      5-min Rain = 0
KVA1 260119Z 07010KT 22/M02 A3019 RMK A01 T02171021  RH  020%=      5-min Rain = 0
KVA1 260120Z 07011KT 22/M02 A3019 RMK A01 T02161021  RH  020%=      5-min Rain = 0
KVA1 260121Z 07012KT 22/M02 A3019 RMK A01 T02161021  RH  020%=      5-min Rain = 0
KVA1 260122Z 06011KT 22/M02 A3019 RMK A01 T02161021  RH  020%=      5-min Rain = 0
KVA1 260123Z 06010KT 22/M02 A302 RMK A01 T02161020  RH  020%=      5-min Rain = 0
KVA1 260124Z 06014KT 22/M02 A3019 RMK A01 T02151021  RH  020%=      5-min Rain = 0
KVA1 260125Z 06013KT 22/M02 A3019 RMK A01 T02151020  RH  021%=      5-min Rain = 0
KVA1 260126Z 06010KT 22/M02 A3019 RMK A01 T02151020  RH  021%=      5-min Rain = 0
KVA1 260127Z 06009KT 22/M02 A302 RMK A01 T02151020  RH  021%=      5-min Rain = 0
KVA1 260128Z 06011KT 21/M02 A302 RMK A01 T02141020  RH  021%=      5-min Rain = 0
KVA1 260129Z 06009G15KT 21/M02 A302 RMK A01 T02131019  RH  021%=      5-min Rain = 0
KVA1 260130Z 06012KT 21/M02 A302 RMK A01 T02131019  RH  021%=      5-min Rain = 0
KVA1 260131Z 06012KT 21/M02 A302 RMK A01 T02131019  RH  021%=      5-min Rain = 0
KVA1 260132Z 07011KT 21/M02 A302 RMK A01 T02131018  RH  021%=      5-min Rain = 0
KVA1 260133Z 07011KT 21/M02 A302 RMK A01 T02131018  RH  021%=      5-min Rain = 0
KVA1 260134Z 07010KT 21/M02 A302 RMK A01 T02121018  RH  021%=      5-min Rain = 0
KVA1 260135Z 07010KT 21/M02 A302 RMK A01 T02121018  RH  021%=      5-min Rain = 0
KVA1 260136Z 07009KT 21/M02 A302 RMK A01 T02111018  RH  021%=      5-min Rain = 0
KVA1 260137Z 06010KT 21/M02 A302 RMK A01 T02111018  RH  021%=      5-min Rain = 0
KVA1 260138Z 06009KT 21/M02 A302 RMK A01 T02101018  RH  021%=      5-min Rain = 0
KVA1 260139Z 07008KT 21/M02 A302 RMK A01 T02101019  RH  021%=      5-min Rain = 0
KVA1 260140Z 07009KT 21/M02 A302 RMK A01 T02101019  RH  021%=      5-min Rain = 0
KVA1 260141Z 06009KT 21/M02 A302 RMK A01 T02101019  RH  021%=      5-min Rain = 0
KVA1 260142Z 06009KT 21/M02 A302 RMK A01 T02101019  RH  022%=      5-min Rain = 0
KVA1 260143Z 06010KT 21/M02 A302 RMK A01 T02091018  RH  022%=      5-min Rain = 0
KVA1 260144Z 07011KT 21/M02 A302 RMK A01 T02091018  RH  022%=      5-min Rain = 0
KVA1 260145Z 07009KT 21/M02 A302 RMK A01 T02091018  RH  022%=      5-min Rain = 0
KVA1 260146Z 06009KT 21/M02 A302 RMK A01 T02091018  RH  022%=      5-min Rain = 0
KVA1 260147Z 07008KT 21/M02 A302 RMK A01 T02081018  RH  022%=      5-min Rain = 0
KVA1 260148Z 07010KT 21/M02 A302 RMK A01 T02081017  RH  022%=      5-min Rain = 0
KVA1 260149Z 07010KT 21/M02 A302 RMK A01 T02081016  RH  022%=      5-min Rain = 0
KVA1 260150Z 06009KT 21/M02 A302 RMK A01 T02081016  RH  022%=      5-min Rain = 0
KVA1 260151Z 07008KT 21/M02 A302 RMK A01 T02071016  RH  022%=      5-min Rain = 0
KVA1 260152Z 06009KT 21/M02 A302 RMK A01 T02071016  RH  022%=      5-min Rain = 0
KVA1 260153Z 07010KT 21/M02 A302 RMK A01 T02061016  RH  022%=      5-min Rain = 0
KVA1 260154Z 06009KT 21/M02 A302 RMK A01 T02061016  RH  022%=      5-min Rain = 0
KVA1 260155Z 06009KT 21/M02 A302 RMK A01 T02071016  RH  022%=      5-min Rain = 0
KVA1 260156Z 06010KT 21/M02 A302 RMK A01 T02071015  RH  022%=      5-min Rain = 0
KVA1 260157Z 07009KT 21/M02 A302 RMK A01 T02071015  RH  023%=      5-min Rain = 0
KVA1 260158Z 06008KT 21/M02 A302 RMK A01 T02061015  RH  023%=      5-min Rain = 0
KVA1 260159Z 06009KT 21/M02 A302 RMK A01 T02061015  RH  023%=      5-min Rain = 0
KVA1 260200Z 06009KT 21/M02 A302 RMK A01 T02061015  RH  023%=      5-min Rain = 0
KVA1 260201Z 06008KT 21/M02 A302 RMK A01 T02061015  RH  023%=      5-min Rain = 0
KVA1 260202Z 06008KT 21/M02 A302 RMK A01 T02051016  RH  023%=      5-min Rain = 0
KVA1 260203Z 06008KT 20/M02 A3021 RMK A01 T02041016  RH  023%=      5-min Rain = 0
KVA1 260204Z 06010KT 20/M02 A3021 RMK A01 T02041015  RH  023%=      5-min Rain = 0
KVA1 260205Z 06009KT 20/M02 A3021 RMK A01 T02041015  RH  023%=      5-min Rain = 0
KVA1 260206Z 06009KT 20/M01 A3021 RMK A01 T02041014  RH  023%=      5-min Rain = 0
KVA1 260207Z 06009KT 20/M02 A3021 RMK A01 T02041015  RH  023%=      5-min Rain = 0
KVA1 260208Z 06009KT 20/M02 A3021 RMK A01 T02031015  RH  023%=      5-min Rain = 0
KVA1 260209Z 06008KT 20/M02 A3021 RMK A01 T02031015  RH  023%=      5-min Rain = 0
KVA1 260210Z 06009KT 20/M01 A3021 RMK A01 T02031014  RH  023%=      5-min Rain = 0
KVA1 260211Z 06008KT 20/M02 A3021 RMK A01 T02031015  RH  023%=      5-min Rain = 0
KVA1 260212Z 06008KT 20/M02 A3021 RMK A01 T02021015  RH  023%=      5-min Rain = 0
KVA1 260213Z 06009KT 20/M02 A3021 RMK A01 T02021015  RH  023%=      5-min Rain = 0
KVA1 260214Z 06008KT 20/M01 A3021 RMK A01 T02021014  RH  023%=      5-min Rain = 0
KVA1 260215Z 06008KT 20/M02 A3021 RMK A01 T02021015  RH  023%=      5-min Rain = 0
KVA1 260216Z 06009KT 20/M02 A3021 RMK A01 T02011015  RH  023%=      5-min Rain = 0
KVA1 260217Z 06009KT 20/M01 A3021 RMK A01 T02011014  RH  023%=      5-min Rain = 0
KVA1 260218Z 06008KT 20/M01 A3021 RMK A01 T02011014  RH  023%=      5-min Rain = 0
KVA1 260219Z 06008KT 20/M01 A3021 RMK A01 T02001014  RH  023%=      5-min Rain = 0
KVA1 260220Z 06008KT 20/M02 A3021 RMK A01 T01991015  RH  024%=      5-min Rain = 0
KVA1 260221Z 05007KT 20/M02 A3021 RMK A01 T01991015  RH  024%=      5-min Rain = 0
KVA1 260222Z 05008KT 20/M02 A3021 RMK A01 T01981015  RH  024%=      5-min Rain = 0
KVA1 260223Z 06008KT 20/M02 A3021 RMK A01 T01981015  RH  024%=      5-min Rain = 0
KVA1 260224Z 06008KT 20/M02 A3021 RMK A01 T01971015  RH  024%=      5-min Rain = 0
KVA1 260225Z 05008KT 20/M01 A3021 RMK A01 T01971014  RH  024%=      5-min Rain = 0
KVA1 260226Z 06008KT 20/M01 A3021 RMK A01 T01971014  RH  024%=      5-min Rain = 0
KVA1 260227Z 06008KT 20/M02 A3021 RMK A01 T01961015  RH  024%=      5-min Rain = 0
KVA1 260228Z 06008KT 20/M01 A3021 RMK A01 T01961014  RH  024%=      5-min Rain = 0
KVA1 260229Z 06008KT 20/M01 A3021 RMK A01 T01961014  RH  024%=      5-min Rain = 0
KVA1 260230Z 06008KT 20/M01 A3021 RMK A01 T01961014  RH  024%=      5-min Rain = 0
KVA1 260231Z 06008KT 20/M01 A3021 RMK A01 T01961014  RH  024%=      5-min Rain = 0
KVA1 260232Z 05008KT 20/M01 A3021 RMK A01 T01951014  RH  024%=      5-min Rain = 0
KVA1 260233Z 05007KT 20/M01 A3021 RMK A01 T01951014  RH  024%=      5-min Rain = 0
KVA1 260234Z 05008KT 20/M01 A3021 RMK A01 T01951014  RH  024%=      5-min Rain = 0
KVA1 260235Z 05007KT 20/M01 A3021 RMK A01 T01951014  RH  024%=      5-min Rain = 0
KVA1 260236Z 05007KT 19/M02 A3022 RMK A01 T01941015  RH  024%=      5-min Rain = 0
KVA1 260237Z 04007KT 19/M02 A3022 RMK A01 T01941015  RH  024%=      5-min Rain = 0
KVA1 260238Z 05008KT 19/M02 A3022 RMK A01 T01931015  RH  024%=      5-min Rain = 0
KVA1 260239Z 05007KT 19/M02 A3022 RMK A01 T01931015  RH  025%=      5-min Rain = 0
KVA1 260240Z 04007KT 19/M02 A3022 RMK A01 T01931015  RH  025%=      5-min Rain = 0
KVA1 260241Z 05008KT 19/M02 A3022 RMK A01 T01921015  RH  025%=      5-min Rain = 0
KVA1 260242Z 04007KT 19/M02 A3022 RMK A01 T01921015  RH  025%=      5-min Rain = 0
KVA1 260243Z 04007KT 19/M02 A3022 RMK A01 T01911015  RH  025%=      5-min Rain = 0
KVA1 260244Z 04007KT 19/M02 A3022 RMK A01 T01901015  RH  025%=      5-min Rain = 0
KVA1 260245Z 04007KT 19/M02 A3022 RMK A01 T01901015  RH  025%=      5-min Rain = 0
KVA1 260246Z 04007KT 19/M02 A3022 RMK A01 T01901015  RH  025%=      5-min Rain = 0
KVA1 260247Z 04008KT 19/M02 A3022 RMK A01 T01891015  RH  025%=      5-min Rain = 0
KVA1 260248Z 04007KT 19/M02 A3022 RMK A01 T01891015  RH  025%=      5-min Rain = 0
KVA1 260249Z 04007KT 19/M02 A3022 RMK A01 T01881015  RH  025%=      5-min Rain = 0
KVA1 260250Z 04007KT 19/M02 A3022 RMK A01 T01881015  RH  025%=      5-min Rain = 0
KVA1 260251Z 04007KT 19/M02 A3022 RMK A01 T01871016  RH  025%=      5-min Rain = 0
KVA1 260252Z 04007KT 19/M02 A3022 RMK A01 T01861016  RH  025%=      5-min Rain = 0
KVA1 260253Z 04007KT 19/M02 A3022 RMK A01 T01861015  RH  026%=      5-min Rain = 0
KVA1 260254Z 04006KT 19/M02 A3022 RMK A01 T01851016  RH  026%=      5-min Rain = 0
KVA1 260255Z 04007KT 18/M02 A3022 RMK A01 T01841016  RH  026%=      5-min Rain = 0
KVA1 260256Z 03007KT 18/M02 A3022 RMK A01 T01841016  RH  026%=      5-min Rain = 0
KVA1 260257Z 03006KT 18/M02 A3022 RMK A01 T01831016  RH  026%=      5-min Rain = 0
KVA1 260258Z 03007KT 18/M02 A3022 RMK A01 T01831016  RH  026%=      5-min Rain = 0
KVA1 260259Z 03007KT 18/M02 A3022 RMK A01 T01821017  RH  026%=      5-min Rain = 0
KVA1 260300Z 03007KT 18/M02 A3022 RMK A01 T01811017  RH  026%=      5-min Rain = 0
KVA1 260301Z 04007KT 18/M02 A3022 RMK A01 T01811017  RH  026%=      5-min Rain = 0
KVA1 260302Z 03007KT 18/M02 A3022 RMK A01 T01811017  RH  026%=      5-min Rain = 0
KVA1 260303Z 03007KT 18/M02 A3022 RMK A01 T01801017  RH  026%=      5-min Rain = 0
KVA1 260304Z 03008KT 18/M02 A3022 RMK A01 T01801017  RH  026%=      5-min Rain = 0
KVA1 260305Z 03007KT 18/M02 A3022 RMK A01 T01791017  RH  026%=      5-min Rain = 0
KVA1 260306Z 03007KT 18/M02 A3022 RMK A01 T01791018  RH  026%=      5-min Rain = 0
KVA1 260307Z 03006KT 18/M02 A3022 RMK A01 T01781018  RH  026%=      5-min Rain = 0
KVA1 260308Z 03007KT 18/M02 A3022 RMK A01 T01771018  RH  026%=      5-min Rain = 0
KVA1 260309Z 03006KT 18/M02 A3022 RMK A01 T01761018  RH  027%=      5-min Rain = 0
KVA1 260310Z 03007KT 18/M02 A3022 RMK A01 T01751019  RH  027%=      5-min Rain = 0
KVA1 260311Z 03007KT 17/M02 A3023 RMK A01 T01741019  RH  027%=      5-min Rain = 0
KVA1 260312Z 03006KT 17/M02 A3023 RMK A01 T01731019  RH  027%=      5-min Rain = 0
KVA1 260313Z 03006KT 17/M02 A3023 RMK A01 T01721019  RH  027%=      5-min Rain = 0
KVA1 260314Z 03006KT 17/M02 A3023 RMK A01 T01721019  RH  027%=      5-min Rain = 0
KVA1 260315Z 03006KT 17/M02 A3023 RMK A01 T01711019  RH  027%=      5-min Rain = 0
KVA1 260316Z 02006KT 17/M02 A3023 RMK A01 T01701020  RH  027%=      5-min Rain = 0
KVA1 260317Z 02006KT 17/M02 A3023 RMK A01 T01701020  RH  027%=      5-min Rain = 0
KVA1 260318Z 02006KT 17/M02 A3023 RMK A01 T01691020  RH  027%=      5-min Rain = 0
KVA1 260319Z 02006KT 17/M02 A3023 RMK A01 T01681021  RH  027%=      5-min Rain = 0
KVA1 260320Z 02006KT 17/M02 A3023 RMK A01 T01671021  RH  027%=      5-min Rain = 0
KVA1 260321Z 02006KT 17/M02 A3023 RMK A01 T01671021  RH  028%=      5-min Rain = 0
KVA1 260322Z 02007KT 17/M02 A3023 RMK A01 T01661022  RH  028%=      5-min Rain = 0
KVA1 260323Z 02007KT 17/M02 A3023 RMK A01 T01661022  RH  028%=      5-min Rain = 0
KVA1 260324Z 01007KT 17/M02 A3023 RMK A01 T01661022  RH  028%=      5-min Rain = 0
KVA1 260325Z 02007KT 17/M02 A3023 RMK A01 T01661021  RH  028%=      5-min Rain = 0
KVA1 260326Z 02007KT 17/M02 A3023 RMK A01 T01651021  RH  028%=      5-min Rain = 0
KVA1 260327Z 02007KT 17/M02 A3023 RMK A01 T01651021  RH  028%=      5-min Rain = 0
KVA1 260328Z 02007KT 17/M02 A3023 RMK A01 T01651020  RH  028%=      5-min Rain = 0
KVA1 260329Z 02008KT 17/M02 A3023 RMK A01 T01651020  RH  028%=      5-min Rain = 0
KVA1 260330Z 01008KT 17/M02 A3023 RMK A01 T01661020  RH  028%=      5-min Rain = 0
KVA1 260331Z 02008KT 17/M02 A3023 RMK A01 T01661019  RH  028%=      5-min Rain = 0
KVA1 260332Z 02007KT 17/M02 A3023 RMK A01 T01671019  RH  028%=      5-min Rain = 0
KVA1 260333Z 02008KT 17/M02 A3023 RMK A01 T01671019  RH  028%=      5-min Rain = 0
KVA1 260334Z 01007KT 17/M02 A3023 RMK A01 T01671019  RH  028%=      5-min Rain = 0
KVA1 260335Z 02007KT 17/M02 A3023 RMK A01 T01671019  RH  028%=      5-min Rain = 0
KVA1 260336Z 02007KT 17/M02 A3023 RMK A01 T01661019  RH  028%=      5-min Rain = 0
KVA1 260337Z 02008KT 17/M02 A3023 RMK A01 T01661018  RH  028%=      5-min Rain = 0
KVA1 260338Z 02007KT 17/M02 A3023 RMK A01 T01661017  RH  028%=      5-min Rain = 0
KVA1 260339Z 02008KT 17/M02 A3023 RMK A01 T01661017  RH  028%=      5-min Rain = 0
KVA1 260340Z 03007KT 17/M02 A3023 RMK A01 T01661017  RH  029%=      5-min Rain = 0
KVA1 260341Z 03008KT 17/M02 A3023 RMK A01 T01661017  RH  029%=      5-min Rain = 0
KVA1 260342Z 03007KT 17/M02 A3023 RMK A01 T01661016  RH  029%=      5-min Rain = 0
KVA1 260343Z 03007KT 17/M02 A3023 RMK A01 T01661016  RH  029%=      5-min Rain = 0
KVA1 260344Z 03006KT 17/M02 A3023 RMK A01 T01661016  RH  029%=      5-min Rain = 0
KVA1 260345Z 03006KT 17/M02 A3024 RMK A01 T01661016  RH  029%=      5-min Rain = 0
KVA1 260346Z 03006KT 17/M02 A3024 RMK A01 T01661016  RH  029%=      5-min Rain = 0
KVA1 260347Z 03006KT 17/M02 A3024 RMK A01 T01651016  RH  029%=      5-min Rain = 0
KVA1 260348Z 02006KT 17/M02 A3024 RMK A01 T01651016  RH  029%=      5-min Rain = 0
KVA1 260349Z 02007KT 16/M02 A3024 RMK A01 T01641016  RH  029%=      5-min Rain = 0
KVA1 260350Z 03007KT 16/M02 A3024 RMK A01 T01641016  RH  029%=      5-min Rain = 0
KVA1 260351Z 02006KT 16/M02 A3024 RMK A01 T01641016  RH  029%=      5-min Rain = 0
KVA1 260352Z 02006KT 16/M02 A3024 RMK A01 T01631016  RH  029%=      5-min Rain = 0
KVA1 260353Z 02006KT 16/M02 A3024 RMK A01 T01631016  RH  029%=      5-min Rain = 0
KVA1 260354Z 02006KT 16/M02 A3024 RMK A01 T01631015  RH  030%=      5-min Rain = 0
KVA1 260355Z 02007KT 16/M02 A3024 RMK A01 T01631016  RH  029%=      5-min Rain = 0
KVA1 260356Z 03006KT 16/M02 A3024 RMK A01 T01631015  RH  030%=      5-min Rain = 0
KVA1 260357Z 03006KT 16/M02 A3024 RMK A01 T01631015  RH  030%=      5-min Rain = 0
KVA1 260358Z 04006KT 16/M02 A3024 RMK A01 T01631015  RH  030%=      5-min Rain = 0
KVA1 260359Z 03006KT 16/M01 A3024 RMK A01 T01631014  RH  030%=      5-min Rain = 0
KVA1 260400Z 03006KT 16/M01 A3024 RMK A01 T01631014  RH  030%=      5-min Rain = 0
KVA1 260401Z 03006KT 16/M01 A3024 RMK A01 T01631014  RH  030%=      5-min Rain = 0
KVA1 260402Z 03007KT 16/M01 A3024 RMK A01 T01631014  RH  030%=      5-min Rain = 0
KVA1 260403Z 03007KT 16/M01 A3024 RMK A01 T01631013  RH  030%=      5-min Rain = 0
KVA1 260404Z 03007KT 16/M01 A3024 RMK A01 T01631013  RH  030%=      5-min Rain = 0
KVA1 260405Z 02007KT 16/M01 A3024 RMK A01 T01631013  RH  030%=      5-min Rain = 0
KVA1 260406Z 03007KT 16/M01 A3024 RMK A01 T01631013  RH  030%=      5-min Rain = 0
KVA1 260407Z 03007KT 16/M01 A3024 RMK A01 T01641012  RH  030%=      5-min Rain = 0
KVA1 260408Z 02007KT 16/M01 A3024 RMK A01 T01641012  RH  030%=      5-min Rain = 0
KVA1 260409Z 02006KT 17/M01 A3024 RMK A01 T01651011  RH  030%=      5-min Rain = 0
KVA1 260410Z 03007KT 17/M01 A3024 RMK A01 T01651011  RH  030%=      5-min Rain = 0
KVA1 260411Z 03008KT 17/M01 A3024 RMK A01 T01651009  RH  030%=      5-min Rain = 0
KVA1 260412Z 03007KT 17/M01 A3024 RMK A01 T01681009  RH  030%=      5-min Rain = 0
KVA1 260413Z 02007KT 17/M01 A3024 RMK A01 T01691010  RH  030%=      5-min Rain = 0
KVA1 260414Z 03007KT 17/M01 A3024 RMK A01 T01681010  RH  030%=      5-min Rain = 0
KVA1 260415Z 04008KT 17/M01 A3024 RMK A01 T01671008  RH  030%=      5-min Rain = 0
KVA1 260416Z 03006KT 17/M01 A3024 RMK A01 T01691008  RH  030%=      5-min Rain = 0
KVA1 260417Z 03005KT 17/M01 A3024 RMK A01 T01691009  RH  030%=      5-min Rain = 0
KVA1 260418Z 04008KT 17/M01 A3024 RMK A01 T01681009  RH  030%=      5-min Rain = 0
KVA1 260419Z 04008KT 17/M01 A3024 RMK A01 T01671009  RH  030%=      5-min Rain = 0
KVA1 260420Z 05007KT 17/M01 A3025 RMK A01 T01671008  RH  030%=      5-min Rain = 0
KVA1 260421Z 05006KT 17/M01 A3025 RMK A01 T01681008  RH  030%=      5-min Rain = 0
KVA1 260422Z 06006KT 17/M01 A3025 RMK A01 T01681008  RH  030%=      5-min Rain = 0
KVA1 260423Z 05008KT 17/M01 A3025 RMK A01 T01681008  RH  030%=      5-min Rain = 0
KVA1 260424Z 05007KT 17/M01 A3025 RMK A01 T01681007  RH  030%=      5-min Rain = 0
KVA1 260425Z 05008KT 17/M01 A3025 RMK A01 T01691006  RH  030%=      5-min Rain = 0
KVA1 260426Z 05006KT 17/M01 A3025 RMK A01 T01701006  RH  030%=      5-min Rain = 0
KVA1 260427Z 05006KT 17/M01 A3024 RMK A01 T01701006  RH  030%=      5-min Rain = 0
KVA1 260428Z 04008KT 17/M01 A3024 RMK A01 T01691006  RH  030%=      5-min Rain = 0
KVA1 260429Z 05007KT 17/M01 A3024 RMK A01 T01691006  RH  030%=      5-min Rain = 0
KVA1 260430Z 06006KT 17/M01 A3024 RMK A01 T01691005  RH  031%=      5-min Rain = 0
KVA1 260431Z 06008KT 17/M01 A3024 RMK A01 T01691005  RH  031%=      5-min Rain = 0
KVA1 260432Z 06009KT 17/M00 A3024 RMK A01 T01711002  RH  031%=      5-min Rain = 0
KVA1 260433Z 05008KT 17/M00 A3024 RMK A01 T01731002  RH  031%=      5-min Rain = 0
KVA1 260434Z 06009KT 17/M00 A3024 RMK A01 T01731002  RH  030%=      5-min Rain = 0
KVA1 260435Z 06010KT 17/M00 A3024 RMK A01 T01741002  RH  030%=      5-min Rain = 0
KVA1 260436Z 06009KT 18/M00 A3024 RMK A01 T01751002  RH  030%=      5-min Rain = 0
KVA1 260437Z 06008KT 18/M00 A3024 RMK A01 T01751002  RH  030%=      5-min Rain = 0
KVA1 260438Z 06009KT 18/M00 A3024 RMK A01 T01751002  RH  030%=      5-min Rain = 0
KVA1 260439Z 06009KT 17/M00 A3024 RMK A01 T01731002  RH  030%=      5-min Rain = 0
KVA1 260440Z 05009KT 17/M00 A3024 RMK A01 T01741002  RH  030%=      5-min Rain = 0
KVA1 260441Z 06008KT 17/M00 A3024 RMK A01 T01741002  RH  030%=      5-min Rain = 0
KVA1 260442Z 06007KT 17/M00 A3024 RMK A01 T01731003  RH  030%=      5-min Rain = 0
KVA1 260443Z 06009KT 17/M00 A3024 RMK A01 T01721003  RH  031%=      5-min Rain = 0
KVA1 260444Z 06009KT 17/M00 A3024 RMK A01 T01731002  RH  031%=      5-min Rain = 0
KVA1 260445Z 06007KT 17/M00 A3024 RMK A01 T01731002  RH  031%=      5-min Rain = 0
KVA1 260446Z 06007KT 17/M00 A3024 RMK A01 T01731002  RH  030%=      5-min Rain = 0
KVA1 260447Z 06008KT 17/M00 A3024 RMK A01 T01721003  RH  031%=      5-min Rain = 0
KVA1 260448Z 06008KT 17/M00 A3024 RMK A01 T01711002  RH  031%=      5-min Rain = 0
KVA1 260449Z 05010KT 17/M00 A3024 RMK A01 T01711002  RH  031%=      5-min Rain = 0
KVA1 260450Z 06009KT 17/M00 A3024 RMK A01 T01711001  RH  031%=      5-min Rain = 0
KVA1 260451Z 06009KT 17/M00 A3024 RMK A01 T01721001  RH  031%=      5-min Rain = 0
KVA1 260452Z 06009KT 17/M00 A3024 RMK A01 T01731001  RH  031%=      5-min Rain = 0
KVA1 260453Z 06010KT 17/M00 A3024 RMK A01 T01731001  RH  031%=      5-min Rain = 0
KVA1 260454Z 06009KT 17/M00 A3024 RMK A01 T01731001  RH  031%=      5-min Rain = 0
KVA1 260455Z 05009KT 17/00 A3024 RMK A01 T017300-0  RH  031%=      5-min Rain = 0
KVA1 260456Z 06009KT 17/00 A3024 RMK A01 T01740000  RH  031%=      5-min Rain = 0
KVA1 260457Z 05009KT 17/00 A3024 RMK A01 T017400-0  RH  031%=      5-min Rain = 0
KVA1 260458Z 05009KT 17/00 A3024 RMK A01 T01740000  RH  031%=      5-min Rain = 0
KVA1 260459Z 06011KT 17/00 A3024 RMK A01 T01740000  RH  031%=      5-min Rain = 0

Page generated in 0.0539 seconds.